<?xml version="1.0" encoding="UTF-8" standalone="no" ?>
<gpx xmlns="http://www.topografix.com/GPX/1/1" xmlns:xsi="http://www.w3.org/2001/XMLSchema-instance" xsi:schemaLocation="http://www.topografix.com/GPX/1/1 http://www.topografix.com/GPX/1/1/gpx.xsd" version="1.1" creator="VisuGPX - https://www.visugpx.com">
  <metadata>
    <name>ronchamp evette par eboulet</name>
  </metadata>
  <trk>
    <name><![CDATA[ronchamp evette par eboulet_1]]></name>
    <trkseg>
      <trkpt lat="47.69683" lon="6.61267">
        <ele>334</ele>
        <time>2022-06-19T07:23:31.000Z</time>
      </trkpt>
      <trkpt lat="47.69674" lon="6.61262">
        <ele>334</ele>
        <time>2022-06-19T07:23:33.000Z</time>
      </trkpt>
      <trkpt lat="47.69676" lon="6.61279">
        <ele>333.4</ele>
        <time>2022-06-19T07:23:37.000Z</time>
      </trkpt>
      <trkpt lat="47.69671" lon="6.61271">
        <ele>333.4</ele>
        <time>2022-06-19T07:23:42.000Z</time>
      </trkpt>
      <trkpt lat="47.69646" lon="6.61091">
        <ele>332.7</ele>
        <time>2022-06-19T07:24:11.000Z</time>
      </trkpt>
      <trkpt lat="47.69634" lon="6.61042">
        <ele>331.7</ele>
        <time>2022-06-19T07:24:18.000Z</time>
      </trkpt>
      <trkpt lat="47.69607" lon="6.60967">
        <ele>331.7</ele>
        <time>2022-06-19T07:24:29.000Z</time>
      </trkpt>
      <trkpt lat="47.69597" lon="6.60951">
        <ele>331.7</ele>
        <time>2022-06-19T07:24:32.000Z</time>
      </trkpt>
      <trkpt lat="47.69585" lon="6.60943">
        <ele>331.7</ele>
        <time>2022-06-19T07:24:35.000Z</time>
      </trkpt>
      <trkpt lat="47.69562" lon="6.60944">
        <ele>331.2</ele>
        <time>2022-06-19T07:24:40.000Z</time>
      </trkpt>
      <trkpt lat="47.69495" lon="6.60976">
        <ele>332.3</ele>
        <time>2022-06-19T07:24:54.000Z</time>
      </trkpt>
      <trkpt lat="47.69389" lon="6.61057">
        <ele>331.6</ele>
        <time>2022-06-19T07:25:16.000Z</time>
      </trkpt>
      <trkpt lat="47.69359" lon="6.61074">
        <ele>331.6</ele>
        <time>2022-06-19T07:25:22.000Z</time>
      </trkpt>
      <trkpt lat="47.69333" lon="6.61079">
        <ele>331.6</ele>
        <time>2022-06-19T07:25:27.000Z</time>
      </trkpt>
      <trkpt lat="47.69277" lon="6.61076">
        <ele>332.2</ele>
        <time>2022-06-19T07:25:38.000Z</time>
      </trkpt>
      <trkpt lat="47.69218" lon="6.61096">
        <ele>331.6</ele>
        <time>2022-06-19T07:25:49.000Z</time>
      </trkpt>
      <trkpt lat="47.69196" lon="6.61099">
        <ele>331.6</ele>
        <time>2022-06-19T07:25:53.000Z</time>
      </trkpt>
      <trkpt lat="47.69171" lon="6.61091">
        <ele>332.5</ele>
        <time>2022-06-19T07:25:58.000Z</time>
      </trkpt>
      <trkpt lat="47.69128" lon="6.61056">
        <ele>332.5</ele>
        <time>2022-06-19T07:26:08.000Z</time>
      </trkpt>
      <trkpt lat="47.69102" lon="6.61042">
        <ele>333.1</ele>
        <time>2022-06-19T07:26:13.000Z</time>
      </trkpt>
      <trkpt lat="47.68975" lon="6.61021">
        <ele>339.6</ele>
        <time>2022-06-19T07:26:48.000Z</time>
      </trkpt>
      <trkpt lat="47.68914" lon="6.60999">
        <ele>342</ele>
        <time>2022-06-19T07:27:07.000Z</time>
      </trkpt>
      <trkpt lat="47.68871" lon="6.60959">
        <ele>344.9</ele>
        <time>2022-06-19T07:27:24.000Z</time>
      </trkpt>
      <trkpt lat="47.68805" lon="6.60927">
        <ele>345.9</ele>
        <time>2022-06-19T07:27:42.000Z</time>
      </trkpt>
      <trkpt lat="47.68789" lon="6.60912">
        <ele>347.1</ele>
        <time>2022-06-19T07:27:48.000Z</time>
      </trkpt>
      <trkpt lat="47.68756" lon="6.6087">
        <ele>350.6</ele>
        <time>2022-06-19T07:28:03.000Z</time>
      </trkpt>
      <trkpt lat="47.68719" lon="6.6085">
        <ele>353.4</ele>
        <time>2022-06-19T07:28:16.000Z</time>
      </trkpt>
      <trkpt lat="47.68684" lon="6.60846">
        <ele>354</ele>
        <time>2022-06-19T07:28:26.000Z</time>
      </trkpt>
      <trkpt lat="47.68589" lon="6.60855">
        <ele>358.5</ele>
        <time>2022-06-19T07:28:55.000Z</time>
      </trkpt>
      <trkpt lat="47.68565" lon="6.6087">
        <ele>358.5</ele>
        <time>2022-06-19T07:29:03.000Z</time>
      </trkpt>
      <trkpt lat="47.68528" lon="6.60909">
        <ele>358.5</ele>
        <time>2022-06-19T07:29:18.000Z</time>
      </trkpt>
      <trkpt lat="47.68526" lon="6.60924">
        <ele>359</ele>
        <time>2022-06-19T07:29:24.000Z</time>
      </trkpt>
      <trkpt lat="47.68537" lon="6.60941">
        <ele>359</ele>
        <time>2022-06-19T07:29:33.000Z</time>
      </trkpt>
      <trkpt lat="47.68581" lon="6.6103">
        <ele>365</ele>
        <time>2022-06-19T07:30:09.000Z</time>
      </trkpt>
      <trkpt lat="47.68585" lon="6.61047">
        <ele>365</ele>
        <time>2022-06-19T07:30:16.000Z</time>
      </trkpt>
      <trkpt lat="47.68568" lon="6.61099">
        <ele>366.8</ele>
        <time>2022-06-19T07:30:33.000Z</time>
      </trkpt>
      <trkpt lat="47.68513" lon="6.61337">
        <ele>377.1</ele>
        <time>2022-06-19T07:31:45.000Z</time>
      </trkpt>
      <trkpt lat="47.68469" lon="6.61468">
        <ele>382.9</ele>
        <time>2022-06-19T07:32:27.000Z</time>
      </trkpt>
      <trkpt lat="47.68471" lon="6.61477">
        <ele>382.9</ele>
        <time>2022-06-19T07:32:32.000Z</time>
      </trkpt>
      <trkpt lat="47.68483" lon="6.61493">
        <ele>383.9</ele>
        <time>2022-06-19T07:32:40.000Z</time>
      </trkpt>
      <trkpt lat="47.68539" lon="6.61546">
        <ele>386.4</ele>
        <time>2022-06-19T07:33:06.000Z</time>
      </trkpt>
      <trkpt lat="47.68649" lon="6.6164">
        <ele>388.9</ele>
        <time>2022-06-19T07:33:51.000Z</time>
      </trkpt>
      <trkpt lat="47.68721" lon="6.61716">
        <ele>386</ele>
        <time>2022-06-19T07:34:14.000Z</time>
      </trkpt>
      <trkpt lat="47.68782" lon="6.61766">
        <ele>386</ele>
        <time>2022-06-19T07:34:29.000Z</time>
      </trkpt>
      <trkpt lat="47.68792" lon="6.61778">
        <ele>385.3</ele>
        <time>2022-06-19T07:34:41.000Z</time>
      </trkpt>
      <trkpt lat="47.68798" lon="6.61742">
        <ele>387.3</ele>
        <time>2022-06-19T07:34:58.000Z</time>
      </trkpt>
      <trkpt lat="47.68895" lon="6.6137">
        <ele>377.8</ele>
        <time>2022-06-19T07:36:02.000Z</time>
      </trkpt>
      <trkpt lat="47.68903" lon="6.6135">
        <ele>375.7</ele>
        <time>2022-06-19T07:36:06.000Z</time>
      </trkpt>
      <trkpt lat="47.6891" lon="6.61343">
        <ele>375.1</ele>
        <time>2022-06-19T07:36:09.000Z</time>
      </trkpt>
      <trkpt lat="47.68919" lon="6.61341">
        <ele>375.1</ele>
        <time>2022-06-19T07:36:12.000Z</time>
      </trkpt>
      <trkpt lat="47.68941" lon="6.61347">
        <ele>376.2</ele>
        <time>2022-06-19T07:36:19.000Z</time>
      </trkpt>
      <trkpt lat="47.68966" lon="6.61378">
        <ele>378</ele>
        <time>2022-06-19T07:36:30.000Z</time>
      </trkpt>
      <trkpt lat="47.68988" lon="6.61424">
        <ele>379.8</ele>
        <time>2022-06-19T07:36:44.000Z</time>
      </trkpt>
      <trkpt lat="47.68992" lon="6.61425">
        <ele>379.8</ele>
        <time>2022-06-19T07:36:47.000Z</time>
      </trkpt>
      <trkpt lat="47.68993" lon="6.6142">
        <ele>379.1</ele>
        <time>2022-06-19T07:36:51.000Z</time>
      </trkpt>
      <trkpt lat="47.68958" lon="6.61364">
        <ele>378</ele>
        <time>2022-06-19T07:37:09.000Z</time>
      </trkpt>
      <trkpt lat="47.68942" lon="6.61346">
        <ele>377.5</ele>
        <time>2022-06-19T07:37:14.000Z</time>
      </trkpt>
      <trkpt lat="47.6892" lon="6.61337">
        <ele>376</ele>
        <time>2022-06-19T07:37:20.000Z</time>
      </trkpt>
      <trkpt lat="47.68911" lon="6.61338">
        <ele>375.3</ele>
        <time>2022-06-19T07:37:23.000Z</time>
      </trkpt>
      <trkpt lat="47.68904" lon="6.61345">
        <ele>375.3</ele>
        <time>2022-06-19T07:37:26.000Z</time>
      </trkpt>
      <trkpt lat="47.68846" lon="6.6158">
        <ele>389.7</ele>
        <time>2022-06-19T07:38:40.000Z</time>
      </trkpt>
      <trkpt lat="47.6879" lon="6.61778">
        <ele>386.5</ele>
        <time>2022-06-19T07:40:17.000Z</time>
      </trkpt>
      <trkpt lat="47.68766" lon="6.61835">
        <ele>378.1</ele>
        <time>2022-06-19T07:40:27.000Z</time>
      </trkpt>
      <trkpt lat="47.68734" lon="6.61869">
        <ele>371.2</ele>
        <time>2022-06-19T07:40:38.000Z</time>
      </trkpt>
      <trkpt lat="47.68706" lon="6.61916">
        <ele>369.9</ele>
        <time>2022-06-19T07:40:48.000Z</time>
      </trkpt>
      <trkpt lat="47.68698" lon="6.61933">
        <ele>369.9</ele>
        <time>2022-06-19T07:40:54.000Z</time>
      </trkpt>
      <trkpt lat="47.68701" lon="6.61939">
        <ele>367.3</ele>
        <time>2022-06-19T07:40:58.000Z</time>
      </trkpt>
      <trkpt lat="47.68708" lon="6.61941">
        <ele>366.1</ele>
        <time>2022-06-19T07:41:08.000Z</time>
      </trkpt>
      <trkpt lat="47.68728" lon="6.61916">
        <ele>365.5</ele>
        <time>2022-06-19T07:41:22.000Z</time>
      </trkpt>
      <trkpt lat="47.68737" lon="6.61913">
        <ele>364.9</ele>
        <time>2022-06-19T07:41:25.000Z</time>
      </trkpt>
      <trkpt lat="47.68745" lon="6.61917">
        <ele>363.9</ele>
        <time>2022-06-19T07:41:29.000Z</time>
      </trkpt>
      <trkpt lat="47.68746" lon="6.61931">
        <ele>362.7</ele>
        <time>2022-06-19T07:41:34.000Z</time>
      </trkpt>
      <trkpt lat="47.68725" lon="6.61975">
        <ele>359.8</ele>
        <time>2022-06-19T07:41:43.000Z</time>
      </trkpt>
      <trkpt lat="47.68719" lon="6.61994">
        <ele>359.8</ele>
        <time>2022-06-19T07:41:46.000Z</time>
      </trkpt>
      <trkpt lat="47.68718" lon="6.62013">
        <ele>358.3</ele>
        <time>2022-06-19T07:41:49.000Z</time>
      </trkpt>
      <trkpt lat="47.68726" lon="6.62033">
        <ele>357.8</ele>
        <time>2022-06-19T07:41:53.000Z</time>
      </trkpt>
      <trkpt lat="47.68744" lon="6.6205">
        <ele>357.8</ele>
        <time>2022-06-19T07:41:58.000Z</time>
      </trkpt>
      <trkpt lat="47.68869" lon="6.62133">
        <ele>356.6</ele>
        <time>2022-06-19T07:42:30.000Z</time>
      </trkpt>
      <trkpt lat="47.68927" lon="6.62198">
        <ele>356.1</ele>
        <time>2022-06-19T07:42:49.000Z</time>
      </trkpt>
      <trkpt lat="47.68942" lon="6.62222">
        <ele>356.7</ele>
        <time>2022-06-19T07:42:55.000Z</time>
      </trkpt>
      <trkpt lat="47.68951" lon="6.62255">
        <ele>356.7</ele>
        <time>2022-06-19T07:43:01.000Z</time>
      </trkpt>
      <trkpt lat="47.6895" lon="6.62329">
        <ele>356.7</ele>
        <time>2022-06-19T07:43:13.000Z</time>
      </trkpt>
      <trkpt lat="47.68959" lon="6.62385">
        <ele>356.7</ele>
        <time>2022-06-19T07:43:22.000Z</time>
      </trkpt>
      <trkpt lat="47.69024" lon="6.62532">
        <ele>357.3</ele>
        <time>2022-06-19T07:43:49.000Z</time>
      </trkpt>
      <trkpt lat="47.69042" lon="6.62561">
        <ele>357.3</ele>
        <time>2022-06-19T07:43:55.000Z</time>
      </trkpt>
      <trkpt lat="47.6908" lon="6.62607">
        <ele>356.6</ele>
        <time>2022-06-19T07:44:05.000Z</time>
      </trkpt>
      <trkpt lat="47.69089" lon="6.62623">
        <ele>356</ele>
        <time>2022-06-19T07:44:08.000Z</time>
      </trkpt>
      <trkpt lat="47.69097" lon="6.62655">
        <ele>356</ele>
        <time>2022-06-19T07:44:13.000Z</time>
      </trkpt>
      <trkpt lat="47.69101" lon="6.62711">
        <ele>356</ele>
        <time>2022-06-19T07:44:22.000Z</time>
      </trkpt>
      <trkpt lat="47.69114" lon="6.62809">
        <ele>357.4</ele>
        <time>2022-06-19T07:44:38.000Z</time>
      </trkpt>
      <trkpt lat="47.69114" lon="6.62853">
        <ele>357.4</ele>
        <time>2022-06-19T07:44:46.000Z</time>
      </trkpt>
      <trkpt lat="47.69104" lon="6.62943">
        <ele>357.4</ele>
        <time>2022-06-19T07:45:01.000Z</time>
      </trkpt>
      <trkpt lat="47.69064" lon="6.63118">
        <ele>358.1</ele>
        <time>2022-06-19T07:45:31.000Z</time>
      </trkpt>
      <trkpt lat="47.69051" lon="6.63152">
        <ele>358.1</ele>
        <time>2022-06-19T07:45:37.000Z</time>
      </trkpt>
      <trkpt lat="47.69026" lon="6.63199">
        <ele>358.1</ele>
        <time>2022-06-19T07:45:48.000Z</time>
      </trkpt>
      <trkpt lat="47.68991" lon="6.63244">
        <ele>358.1</ele>
        <time>2022-06-19T07:46:01.000Z</time>
      </trkpt>
      <trkpt lat="47.6894" lon="6.63327">
        <ele>354.7</ele>
        <time>2022-06-19T07:46:30.000Z</time>
      </trkpt>
      <trkpt lat="47.68943" lon="6.63336">
        <ele>354.7</ele>
        <time>2022-06-19T07:46:37.000Z</time>
      </trkpt>
      <trkpt lat="47.68952" lon="6.63341">
        <ele>354</ele>
        <time>2022-06-19T07:46:41.000Z</time>
      </trkpt>
      <trkpt lat="47.68989" lon="6.63339">
        <ele>352.6</ele>
        <time>2022-06-19T07:46:51.000Z</time>
      </trkpt>
      <trkpt lat="47.68995" lon="6.63341">
        <ele>351.7</ele>
        <time>2022-06-19T07:46:53.000Z</time>
      </trkpt>
      <trkpt lat="47.69001" lon="6.63349">
        <ele>351.7</ele>
        <time>2022-06-19T07:46:56.000Z</time>
      </trkpt>
      <trkpt lat="47.69002" lon="6.63368">
        <ele>351.7</ele>
        <time>2022-06-19T07:47:00.000Z</time>
      </trkpt>
      <trkpt lat="47.68989" lon="6.63431">
        <ele>350.9</ele>
        <time>2022-06-19T07:47:10.000Z</time>
      </trkpt>
      <trkpt lat="47.6899" lon="6.6346">
        <ele>349.5</ele>
        <time>2022-06-19T07:47:14.000Z</time>
      </trkpt>
      <trkpt lat="47.69003" lon="6.63493">
        <ele>349.5</ele>
        <time>2022-06-19T07:47:19.000Z</time>
      </trkpt>
      <trkpt lat="47.69045" lon="6.63555">
        <ele>353.1</ele>
        <time>2022-06-19T07:47:34.000Z</time>
      </trkpt>
      <trkpt lat="47.69071" lon="6.63622">
        <ele>354.4</ele>
        <time>2022-06-19T07:47:49.000Z</time>
      </trkpt>
      <trkpt lat="47.69098" lon="6.63724">
        <ele>354.4</ele>
        <time>2022-06-19T07:48:06.000Z</time>
      </trkpt>
      <trkpt lat="47.69109" lon="6.63794">
        <ele>354.4</ele>
        <time>2022-06-19T07:48:18.000Z</time>
      </trkpt>
      <trkpt lat="47.69112" lon="6.63837">
        <ele>354.4</ele>
        <time>2022-06-19T07:48:25.000Z</time>
      </trkpt>
      <trkpt lat="47.69107" lon="6.63874">
        <ele>353.7</ele>
        <time>2022-06-19T07:48:31.000Z</time>
      </trkpt>
      <trkpt lat="47.69019" lon="6.64173">
        <ele>363.6</ele>
        <time>2022-06-19T07:49:31.000Z</time>
      </trkpt>
      <trkpt lat="47.68966" lon="6.64428">
        <ele>365.9</ele>
        <time>2022-06-19T07:50:16.000Z</time>
      </trkpt>
      <trkpt lat="47.68957" lon="6.64458">
        <ele>365.9</ele>
        <time>2022-06-19T07:50:22.000Z</time>
      </trkpt>
      <trkpt lat="47.68939" lon="6.645">
        <ele>367.2</ele>
        <time>2022-06-19T07:50:31.000Z</time>
      </trkpt>
      <trkpt lat="47.68916" lon="6.64537">
        <ele>367.8</ele>
        <time>2022-06-19T07:50:40.000Z</time>
      </trkpt>
      <trkpt lat="47.68894" lon="6.6456">
        <ele>368.4</ele>
        <time>2022-06-19T07:50:47.000Z</time>
      </trkpt>
      <trkpt lat="47.68854" lon="6.6459">
        <ele>369</ele>
        <time>2022-06-19T07:50:59.000Z</time>
      </trkpt>
      <trkpt lat="47.68844" lon="6.64606">
        <ele>369</ele>
        <time>2022-06-19T07:51:04.000Z</time>
      </trkpt>
      <trkpt lat="47.68845" lon="6.64623">
        <ele>369</ele>
        <time>2022-06-19T07:51:08.000Z</time>
      </trkpt>
      <trkpt lat="47.68857" lon="6.6467">
        <ele>369</ele>
        <time>2022-06-19T07:51:16.000Z</time>
      </trkpt>
      <trkpt lat="47.68885" lon="6.648">
        <ele>364.2</ele>
        <time>2022-06-19T07:51:35.000Z</time>
      </trkpt>
      <trkpt lat="47.68887" lon="6.64823">
        <ele>364.2</ele>
        <time>2022-06-19T07:51:39.000Z</time>
      </trkpt>
      <trkpt lat="47.68884" lon="6.64837">
        <ele>363.4</ele>
        <time>2022-06-19T07:51:42.000Z</time>
      </trkpt>
      <trkpt lat="47.68868" lon="6.64856">
        <ele>362.7</ele>
        <time>2022-06-19T07:51:48.000Z</time>
      </trkpt>
      <trkpt lat="47.68833" lon="6.64874">
        <ele>362.7</ele>
        <time>2022-06-19T07:51:57.000Z</time>
      </trkpt>
      <trkpt lat="47.68815" lon="6.64874">
        <ele>362.7</ele>
        <time>2022-06-19T07:52:01.000Z</time>
      </trkpt>
      <trkpt lat="47.68779" lon="6.64858">
        <ele>361.8</ele>
        <time>2022-06-19T07:52:09.000Z</time>
      </trkpt>
      <trkpt lat="47.68768" lon="6.64859">
        <ele>361.8</ele>
        <time>2022-06-19T07:52:12.000Z</time>
      </trkpt>
      <trkpt lat="47.68758" lon="6.64874">
        <ele>361.1</ele>
        <time>2022-06-19T07:52:16.000Z</time>
      </trkpt>
      <trkpt lat="47.68741" lon="6.64922">
        <ele>362.4</ele>
        <time>2022-06-19T07:52:26.000Z</time>
      </trkpt>
      <trkpt lat="47.68725" lon="6.64942">
        <ele>363.1</ele>
        <time>2022-06-19T07:52:32.000Z</time>
      </trkpt>
      <trkpt lat="47.68584" lon="6.65025">
        <ele>358.6</ele>
        <time>2022-06-19T07:53:13.000Z</time>
      </trkpt>
      <trkpt lat="47.68573" lon="6.65061">
        <ele>358.6</ele>
        <time>2022-06-19T07:53:37.000Z</time>
      </trkpt>
      <trkpt lat="47.68571" lon="6.65083">
        <ele>358.6</ele>
        <time>2022-06-19T07:53:43.000Z</time>
      </trkpt>
      <trkpt lat="47.68573" lon="6.65105">
        <ele>358.6</ele>
        <time>2022-06-19T07:53:48.000Z</time>
      </trkpt>
      <trkpt lat="47.68582" lon="6.65128">
        <ele>359.7</ele>
        <time>2022-06-19T07:53:55.000Z</time>
      </trkpt>
      <trkpt lat="47.6861" lon="6.65152">
        <ele>362.2</ele>
        <time>2022-06-19T07:54:09.000Z</time>
      </trkpt>
      <trkpt lat="47.68621" lon="6.65176">
        <ele>364</ele>
        <time>2022-06-19T07:54:16.000Z</time>
      </trkpt>
      <trkpt lat="47.6863" lon="6.65248">
        <ele>364</ele>
        <time>2022-06-19T07:54:30.000Z</time>
      </trkpt>
      <trkpt lat="47.68636" lon="6.65357">
        <ele>368.1</ele>
        <time>2022-06-19T07:54:56.000Z</time>
      </trkpt>
      <trkpt lat="47.68631" lon="6.65425">
        <ele>372</ele>
        <time>2022-06-19T07:55:14.000Z</time>
      </trkpt>
      <trkpt lat="47.68635" lon="6.65439">
        <ele>373.1</ele>
        <time>2022-06-19T07:55:19.000Z</time>
      </trkpt>
      <trkpt lat="47.68649" lon="6.65463">
        <ele>374.3</ele>
        <time>2022-06-19T07:55:28.000Z</time>
      </trkpt>
      <trkpt lat="47.68651" lon="6.65473">
        <ele>375.4</ele>
        <time>2022-06-19T07:55:32.000Z</time>
      </trkpt>
      <trkpt lat="47.68647" lon="6.65484">
        <ele>376.2</ele>
        <time>2022-06-19T07:55:37.000Z</time>
      </trkpt>
      <trkpt lat="47.68633" lon="6.6549">
        <ele>376.2</ele>
        <time>2022-06-19T07:55:43.000Z</time>
      </trkpt>
      <trkpt lat="47.68548" lon="6.65495">
        <ele>382.6</ele>
        <time>2022-06-19T07:56:24.000Z</time>
      </trkpt>
      <trkpt lat="47.6852" lon="6.65494">
        <ele>384.2</ele>
        <time>2022-06-19T07:56:36.000Z</time>
      </trkpt>
      <trkpt lat="47.68502" lon="6.65485">
        <ele>385.8</ele>
        <time>2022-06-19T07:56:45.000Z</time>
      </trkpt>
      <trkpt lat="47.68425" lon="6.65426">
        <ele>389.1</ele>
        <time>2022-06-19T07:57:18.000Z</time>
      </trkpt>
      <trkpt lat="47.68252" lon="6.65308">
        <ele>395.4</ele>
        <time>2022-06-19T07:58:27.000Z</time>
      </trkpt>
      <trkpt lat="47.68232" lon="6.65291">
        <ele>397.2</ele>
        <time>2022-06-19T07:58:34.000Z</time>
      </trkpt>
      <trkpt lat="47.68194" lon="6.65246">
        <ele>397.2</ele>
        <time>2022-06-19T07:58:47.000Z</time>
      </trkpt>
      <trkpt lat="47.68153" lon="6.65215">
        <ele>395.3</ele>
        <time>2022-06-19T07:58:58.000Z</time>
      </trkpt>
      <trkpt lat="47.68109" lon="6.65187">
        <ele>394.7</ele>
        <time>2022-06-19T07:59:12.000Z</time>
      </trkpt>
      <trkpt lat="47.68029" lon="6.65085">
        <ele>403.3</ele>
        <time>2022-06-19T08:00:02.000Z</time>
      </trkpt>
      <trkpt lat="47.67956" lon="6.65039">
        <ele>416.8</ele>
        <time>2022-06-19T08:00:57.000Z</time>
      </trkpt>
      <trkpt lat="47.67944" lon="6.65017">
        <ele>421.4</ele>
        <time>2022-06-19T08:01:12.000Z</time>
      </trkpt>
      <trkpt lat="47.67936" lon="6.64981">
        <ele>425.5</ele>
        <time>2022-06-19T08:01:34.000Z</time>
      </trkpt>
      <trkpt lat="47.67924" lon="6.64965">
        <ele>426.9</ele>
        <time>2022-06-19T08:01:46.000Z</time>
      </trkpt>
      <trkpt lat="47.67899" lon="6.64966">
        <ele>430.4</ele>
        <time>2022-06-19T08:02:07.000Z</time>
      </trkpt>
      <trkpt lat="47.67884" lon="6.6496">
        <ele>435.8</ele>
        <time>2022-06-19T08:02:28.000Z</time>
      </trkpt>
      <trkpt lat="47.67881" lon="6.64968">
        <ele>435.8</ele>
        <time>2022-06-19T08:02:59.000Z</time>
      </trkpt>
      <trkpt lat="47.67876" lon="6.64958">
        <ele>435.8</ele>
        <time>2022-06-19T08:03:11.000Z</time>
      </trkpt>
      <trkpt lat="47.67877" lon="6.64951">
        <ele>436.9</ele>
        <time>2022-06-19T08:03:22.000Z</time>
      </trkpt>
      <trkpt lat="47.67869" lon="6.64938">
        <ele>439</ele>
        <time>2022-06-19T08:03:44.000Z</time>
      </trkpt>
      <trkpt lat="47.67853" lon="6.64924">
        <ele>439.7</ele>
        <time>2022-06-19T08:03:58.000Z</time>
      </trkpt>
      <trkpt lat="47.67792" lon="6.64915">
        <ele>447.7</ele>
        <time>2022-06-19T08:04:42.000Z</time>
      </trkpt>
      <trkpt lat="47.67789" lon="6.64904">
        <ele>450.1</ele>
        <time>2022-06-19T08:04:50.000Z</time>
      </trkpt>
      <trkpt lat="47.67799" lon="6.64887">
        <ele>452.3</ele>
        <time>2022-06-19T08:05:03.000Z</time>
      </trkpt>
      <trkpt lat="47.67863" lon="6.64854">
        <ele>463.9</ele>
        <time>2022-06-19T08:06:08.000Z</time>
      </trkpt>
      <trkpt lat="47.67875" lon="6.64836">
        <ele>468</ele>
        <time>2022-06-19T08:07:27.000Z</time>
      </trkpt>
      <trkpt lat="47.67876" lon="6.64839">
        <ele>468</ele>
        <time>2022-06-19T08:07:30.000Z</time>
      </trkpt>
      <trkpt lat="47.67873" lon="6.64831">
        <ele>468</ele>
        <time>2022-06-19T08:07:35.000Z</time>
      </trkpt>
      <trkpt lat="47.67839" lon="6.64841">
        <ele>470.6</ele>
        <time>2022-06-19T08:07:57.000Z</time>
      </trkpt>
      <trkpt lat="47.67812" lon="6.64837">
        <ele>472.2</ele>
        <time>2022-06-19T08:08:14.000Z</time>
      </trkpt>
      <trkpt lat="47.67769" lon="6.64841">
        <ele>469.8</ele>
        <time>2022-06-19T08:08:25.000Z</time>
      </trkpt>
      <trkpt lat="47.677" lon="6.6489">
        <ele>470.4</ele>
        <time>2022-06-19T08:08:49.000Z</time>
      </trkpt>
      <trkpt lat="47.67676" lon="6.64916">
        <ele>471.8</ele>
        <time>2022-06-19T08:09:00.000Z</time>
      </trkpt>
      <trkpt lat="47.67662" lon="6.64939">
        <ele>472.5</ele>
        <time>2022-06-19T08:09:08.000Z</time>
      </trkpt>
      <trkpt lat="47.67612" lon="6.65108">
        <ele>485</ele>
        <time>2022-06-19T08:10:13.000Z</time>
      </trkpt>
      <trkpt lat="47.67616" lon="6.65161">
        <ele>486.3</ele>
        <time>2022-06-19T08:10:31.000Z</time>
      </trkpt>
      <trkpt lat="47.67613" lon="6.65231">
        <ele>486.3</ele>
        <time>2022-06-19T08:10:46.000Z</time>
      </trkpt>
      <trkpt lat="47.67617" lon="6.65268">
        <ele>486.3</ele>
        <time>2022-06-19T08:10:54.000Z</time>
      </trkpt>
      <trkpt lat="47.67633" lon="6.65338">
        <ele>488.4</ele>
        <time>2022-06-19T08:11:11.000Z</time>
      </trkpt>
      <trkpt lat="47.67676" lon="6.65448">
        <ele>488.1</ele>
        <time>2022-06-19T08:11:35.000Z</time>
      </trkpt>
      <trkpt lat="47.67681" lon="6.65469">
        <ele>485.7</ele>
        <time>2022-06-19T08:11:42.000Z</time>
      </trkpt>
      <trkpt lat="47.67661" lon="6.6546">
        <ele>486.5</ele>
        <time>2022-06-19T08:11:57.000Z</time>
      </trkpt>
      <trkpt lat="47.67645" lon="6.65441">
        <ele>490.6</ele>
        <time>2022-06-19T08:12:11.000Z</time>
      </trkpt>
      <trkpt lat="47.67628" lon="6.65431">
        <ele>492.7</ele>
        <time>2022-06-19T08:12:24.000Z</time>
      </trkpt>
      <trkpt lat="47.67553" lon="6.6543">
        <ele>492.4</ele>
        <time>2022-06-19T08:12:49.000Z</time>
      </trkpt>
      <trkpt lat="47.67481" lon="6.65447">
        <ele>492.4</ele>
        <time>2022-06-19T08:13:10.000Z</time>
      </trkpt>
      <trkpt lat="47.67445" lon="6.65467">
        <ele>492.4</ele>
        <time>2022-06-19T08:13:20.000Z</time>
      </trkpt>
      <trkpt lat="47.67402" lon="6.65504">
        <ele>489</ele>
        <time>2022-06-19T08:13:31.000Z</time>
      </trkpt>
      <trkpt lat="47.67382" lon="6.65534">
        <ele>487.9</ele>
        <time>2022-06-19T08:13:39.000Z</time>
      </trkpt>
      <trkpt lat="47.67343" lon="6.65609">
        <ele>487.9</ele>
        <time>2022-06-19T08:13:53.000Z</time>
      </trkpt>
      <trkpt lat="47.67326" lon="6.65623">
        <ele>487.9</ele>
        <time>2022-06-19T08:14:00.000Z</time>
      </trkpt>
      <trkpt lat="47.67203" lon="6.65638">
        <ele>492.1</ele>
        <time>2022-06-19T08:14:36.000Z</time>
      </trkpt>
      <trkpt lat="47.67101" lon="6.65637">
        <ele>491</ele>
        <time>2022-06-19T08:15:02.000Z</time>
      </trkpt>
      <trkpt lat="47.6693" lon="6.65661">
        <ele>490.2</ele>
        <time>2022-06-19T08:15:43.000Z</time>
      </trkpt>
      <trkpt lat="47.66888" lon="6.65671">
        <ele>493.7</ele>
        <time>2022-06-19T08:15:59.000Z</time>
      </trkpt>
      <trkpt lat="47.66877" lon="6.65679">
        <ele>494.9</ele>
        <time>2022-06-19T08:16:05.000Z</time>
      </trkpt>
      <trkpt lat="47.66848" lon="6.65719">
        <ele>497.8</ele>
        <time>2022-06-19T08:16:24.000Z</time>
      </trkpt>
      <trkpt lat="47.66825" lon="6.65753">
        <ele>500.8</ele>
        <time>2022-06-19T08:16:43.000Z</time>
      </trkpt>
      <trkpt lat="47.66814" lon="6.65776">
        <ele>503.4</ele>
        <time>2022-06-19T08:16:56.000Z</time>
      </trkpt>
      <trkpt lat="47.66783" lon="6.65813">
        <ele>505</ele>
        <time>2022-06-19T08:17:15.000Z</time>
      </trkpt>
      <trkpt lat="47.66744" lon="6.65872">
        <ele>507.7</ele>
        <time>2022-06-19T08:17:38.000Z</time>
      </trkpt>
      <trkpt lat="47.66737" lon="6.65896">
        <ele>509.8</ele>
        <time>2022-06-19T08:17:47.000Z</time>
      </trkpt>
      <trkpt lat="47.6674" lon="6.65922">
        <ele>509.8</ele>
        <time>2022-06-19T08:17:53.000Z</time>
      </trkpt>
      <trkpt lat="47.66785" lon="6.6609">
        <ele>516.8</ele>
        <time>2022-06-19T08:18:37.000Z</time>
      </trkpt>
      <trkpt lat="47.66797" lon="6.66121">
        <ele>518.6</ele>
        <time>2022-06-19T08:18:50.000Z</time>
      </trkpt>
      <trkpt lat="47.66798" lon="6.66159">
        <ele>520.4</ele>
        <time>2022-06-19T08:19:05.000Z</time>
      </trkpt>
      <trkpt lat="47.66789" lon="6.6619">
        <ele>523.6</ele>
        <time>2022-06-19T08:19:20.000Z</time>
      </trkpt>
      <trkpt lat="47.66759" lon="6.6625">
        <ele>527.3</ele>
        <time>2022-06-19T08:19:50.000Z</time>
      </trkpt>
      <trkpt lat="47.66717" lon="6.66329">
        <ele>529.6</ele>
        <time>2022-06-19T08:20:23.000Z</time>
      </trkpt>
      <trkpt lat="47.66659" lon="6.66421">
        <ele>534.8</ele>
        <time>2022-06-19T08:21:01.000Z</time>
      </trkpt>
      <trkpt lat="47.66646" lon="6.66449">
        <ele>536.4</ele>
        <time>2022-06-19T08:21:13.000Z</time>
      </trkpt>
      <trkpt lat="47.66621" lon="6.66616">
        <ele>536.5</ele>
        <time>2022-06-19T08:21:48.000Z</time>
      </trkpt>
      <trkpt lat="47.66613" lon="6.66708">
        <ele>544.6</ele>
        <time>2022-06-19T08:22:27.000Z</time>
      </trkpt>
      <trkpt lat="47.66617" lon="6.66765">
        <ele>548</ele>
        <time>2022-06-19T08:22:54.000Z</time>
      </trkpt>
      <trkpt lat="47.66627" lon="6.66801">
        <ele>550</ele>
        <time>2022-06-19T08:23:12.000Z</time>
      </trkpt>
      <trkpt lat="47.66628" lon="6.66826">
        <ele>552.2</ele>
        <time>2022-06-19T08:23:24.000Z</time>
      </trkpt>
      <trkpt lat="47.66636" lon="6.6685">
        <ele>552.8</ele>
        <time>2022-06-19T08:23:36.000Z</time>
      </trkpt>
      <trkpt lat="47.66639" lon="6.6688">
        <ele>555.3</ele>
        <time>2022-06-19T08:23:50.000Z</time>
      </trkpt>
      <trkpt lat="47.66651" lon="6.66914">
        <ele>558.8</ele>
        <time>2022-06-19T08:24:09.000Z</time>
      </trkpt>
      <trkpt lat="47.6666" lon="6.66971">
        <ele>560.9</ele>
        <time>2022-06-19T08:24:35.000Z</time>
      </trkpt>
      <trkpt lat="47.66669" lon="6.66996">
        <ele>562.2</ele>
        <time>2022-06-19T08:25:01.000Z</time>
      </trkpt>
      <trkpt lat="47.66673" lon="6.66988">
        <ele>561.6</ele>
        <time>2022-06-19T08:25:37.000Z</time>
      </trkpt>
      <trkpt lat="47.66689" lon="6.67007">
        <ele>559.8</ele>
        <time>2022-06-19T08:25:50.000Z</time>
      </trkpt>
      <trkpt lat="47.66707" lon="6.67035">
        <ele>555.9</ele>
        <time>2022-06-19T08:25:58.000Z</time>
      </trkpt>
      <trkpt lat="47.66715" lon="6.67058">
        <ele>547.9</ele>
        <time>2022-06-19T08:26:04.000Z</time>
      </trkpt>
      <trkpt lat="47.66749" lon="6.67266">
        <ele>525.9</ele>
        <time>2022-06-19T08:26:38.000Z</time>
      </trkpt>
      <trkpt lat="47.66766" lon="6.67315">
        <ele>513.6</ele>
        <time>2022-06-19T08:26:52.000Z</time>
      </trkpt>
      <trkpt lat="47.66795" lon="6.67452">
        <ele>499.2</ele>
        <time>2022-06-19T08:27:15.000Z</time>
      </trkpt>
      <trkpt lat="47.66823" lon="6.67524">
        <ele>490</ele>
        <time>2022-06-19T08:27:28.000Z</time>
      </trkpt>
      <trkpt lat="47.66845" lon="6.67615">
        <ele>478</ele>
        <time>2022-06-19T08:27:40.000Z</time>
      </trkpt>
      <trkpt lat="47.66854" lon="6.67634">
        <ele>478</ele>
        <time>2022-06-19T08:27:43.000Z</time>
      </trkpt>
      <trkpt lat="47.66869" lon="6.67656">
        <ele>474.8</ele>
        <time>2022-06-19T08:27:47.000Z</time>
      </trkpt>
      <trkpt lat="47.66904" lon="6.67676">
        <ele>465.8</ele>
        <time>2022-06-19T08:28:00.000Z</time>
      </trkpt>
      <trkpt lat="47.66913" lon="6.67688">
        <ele>465.8</ele>
        <time>2022-06-19T08:28:06.000Z</time>
      </trkpt>
      <trkpt lat="47.66935" lon="6.67755">
        <ele>464.2</ele>
        <time>2022-06-19T08:28:17.000Z</time>
      </trkpt>
      <trkpt lat="47.66971" lon="6.67835">
        <ele>460.9</ele>
        <time>2022-06-19T08:28:27.000Z</time>
      </trkpt>
      <trkpt lat="47.66987" lon="6.67864">
        <ele>460.2</ele>
        <time>2022-06-19T08:28:32.000Z</time>
      </trkpt>
      <trkpt lat="47.67025" lon="6.67911">
        <ele>460.2</ele>
        <time>2022-06-19T08:28:46.000Z</time>
      </trkpt>
      <trkpt lat="47.67042" lon="6.67951">
        <ele>460.8</ele>
        <time>2022-06-19T08:28:58.000Z</time>
      </trkpt>
      <trkpt lat="47.67047" lon="6.68156">
        <ele>459.7</ele>
        <time>2022-06-19T08:29:35.000Z</time>
      </trkpt>
      <trkpt lat="47.67042" lon="6.68266">
        <ele>455.8</ele>
        <time>2022-06-19T08:29:45.000Z</time>
      </trkpt>
      <trkpt lat="47.67044" lon="6.68301">
        <ele>455.8</ele>
        <time>2022-06-19T08:29:48.000Z</time>
      </trkpt>
      <trkpt lat="47.67049" lon="6.6832">
        <ele>454.1</ele>
        <time>2022-06-19T08:29:50.000Z</time>
      </trkpt>
      <trkpt lat="47.67058" lon="6.68335">
        <ele>454.1</ele>
        <time>2022-06-19T08:29:52.000Z</time>
      </trkpt>
      <trkpt lat="47.67091" lon="6.6836">
        <ele>449.8</ele>
        <time>2022-06-19T08:30:00.000Z</time>
      </trkpt>
      <trkpt lat="47.67066" lon="6.68396">
        <ele>445.9</ele>
        <time>2022-06-19T08:30:11.000Z</time>
      </trkpt>
      <trkpt lat="47.67059" lon="6.68417">
        <ele>443.7</ele>
        <time>2022-06-19T08:30:15.000Z</time>
      </trkpt>
      <trkpt lat="47.6706" lon="6.68482">
        <ele>442.9</ele>
        <time>2022-06-19T08:30:28.000Z</time>
      </trkpt>
      <trkpt lat="47.67053" lon="6.68516">
        <ele>444.4</ele>
        <time>2022-06-19T08:30:36.000Z</time>
      </trkpt>
      <trkpt lat="47.67022" lon="6.68626">
        <ele>444.4</ele>
        <time>2022-06-19T08:30:57.000Z</time>
      </trkpt>
      <trkpt lat="47.67013" lon="6.68673">
        <ele>443.9</ele>
        <time>2022-06-19T08:31:04.000Z</time>
      </trkpt>
      <trkpt lat="47.67012" lon="6.68705">
        <ele>443.2</ele>
        <time>2022-06-19T08:31:14.000Z</time>
      </trkpt>
      <trkpt lat="47.6702" lon="6.6871">
        <ele>443.2</ele>
        <time>2022-06-19T08:31:22.000Z</time>
      </trkpt>
      <trkpt lat="47.67025" lon="6.68703">
        <ele>443.2</ele>
        <time>2022-06-19T08:31:27.000Z</time>
      </trkpt>
      <trkpt lat="47.67025" lon="6.68687">
        <ele>443.2</ele>
        <time>2022-06-19T08:31:33.000Z</time>
      </trkpt>
      <trkpt lat="47.6702" lon="6.6868">
        <ele>443.2</ele>
        <time>2022-06-19T08:31:38.000Z</time>
      </trkpt>
      <trkpt lat="47.67013" lon="6.68689">
        <ele>443.2</ele>
        <time>2022-06-19T08:31:44.000Z</time>
      </trkpt>
      <trkpt lat="47.67013" lon="6.68702">
        <ele>443.2</ele>
        <time>2022-06-19T08:31:49.000Z</time>
      </trkpt>
      <trkpt lat="47.67023" lon="6.68718">
        <ele>443.2</ele>
        <time>2022-06-19T08:32:00.000Z</time>
      </trkpt>
      <trkpt lat="47.67027" lon="6.68707">
        <ele>443.2</ele>
        <time>2022-06-19T08:32:09.000Z</time>
      </trkpt>
      <trkpt lat="47.67028" lon="6.68693">
        <ele>443.2</ele>
        <time>2022-06-19T08:32:14.000Z</time>
      </trkpt>
      <trkpt lat="47.67019" lon="6.68665">
        <ele>443.2</ele>
        <time>2022-06-19T08:32:22.000Z</time>
      </trkpt>
      <trkpt lat="47.67018" lon="6.68646">
        <ele>443.2</ele>
        <time>2022-06-19T08:32:27.000Z</time>
      </trkpt>
      <trkpt lat="47.67057" lon="6.68499">
        <ele>444.9</ele>
        <time>2022-06-19T08:33:00.000Z</time>
      </trkpt>
      <trkpt lat="47.67059" lon="6.68476">
        <ele>443.5</ele>
        <time>2022-06-19T08:33:04.000Z</time>
      </trkpt>
      <trkpt lat="47.67055" lon="6.68427">
        <ele>442.9</ele>
        <time>2022-06-19T08:33:12.000Z</time>
      </trkpt>
      <trkpt lat="47.67056" lon="6.68413">
        <ele>442.9</ele>
        <time>2022-06-19T08:33:15.000Z</time>
      </trkpt>
      <trkpt lat="47.67084" lon="6.68343">
        <ele>457.2</ele>
        <time>2022-06-19T08:33:41.000Z</time>
      </trkpt>
      <trkpt lat="47.67099" lon="6.68318">
        <ele>457.7</ele>
        <time>2022-06-19T08:33:49.000Z</time>
      </trkpt>
      <trkpt lat="47.67124" lon="6.68294">
        <ele>457.1</ele>
        <time>2022-06-19T08:33:58.000Z</time>
      </trkpt>
      <trkpt lat="47.67192" lon="6.68264">
        <ele>456.4</ele>
        <time>2022-06-19T08:34:16.000Z</time>
      </trkpt>
      <trkpt lat="47.67221" lon="6.68261">
        <ele>457.3</ele>
        <time>2022-06-19T08:34:24.000Z</time>
      </trkpt>
      <trkpt lat="47.67243" lon="6.68276">
        <ele>458.8</ele>
        <time>2022-06-19T08:34:31.000Z</time>
      </trkpt>
      <trkpt lat="47.67272" lon="6.68315">
        <ele>459.9</ele>
        <time>2022-06-19T08:34:42.000Z</time>
      </trkpt>
      <trkpt lat="47.67281" lon="6.68348">
        <ele>459.9</ele>
        <time>2022-06-19T08:34:47.000Z</time>
      </trkpt>
      <trkpt lat="47.67285" lon="6.68408">
        <ele>458.6</ele>
        <time>2022-06-19T08:34:55.000Z</time>
      </trkpt>
      <trkpt lat="47.67289" lon="6.68418">
        <ele>458.6</ele>
        <time>2022-06-19T08:34:57.000Z</time>
      </trkpt>
      <trkpt lat="47.67295" lon="6.68423">
        <ele>457.9</ele>
        <time>2022-06-19T08:34:59.000Z</time>
      </trkpt>
      <trkpt lat="47.67312" lon="6.68417">
        <ele>457.9</ele>
        <time>2022-06-19T08:35:02.000Z</time>
      </trkpt>
      <trkpt lat="47.67336" lon="6.68397">
        <ele>455.9</ele>
        <time>2022-06-19T08:35:07.000Z</time>
      </trkpt>
      <trkpt lat="47.67366" lon="6.6836">
        <ele>453.7</ele>
        <time>2022-06-19T08:35:12.000Z</time>
      </trkpt>
      <trkpt lat="47.67393" lon="6.68317">
        <ele>449.9</ele>
        <time>2022-06-19T08:35:18.000Z</time>
      </trkpt>
      <trkpt lat="47.67406" lon="6.68307">
        <ele>449.9</ele>
        <time>2022-06-19T08:35:21.000Z</time>
      </trkpt>
      <trkpt lat="47.67423" lon="6.68308">
        <ele>448.1</ele>
        <time>2022-06-19T08:35:24.000Z</time>
      </trkpt>
      <trkpt lat="47.6746" lon="6.68324">
        <ele>446.8</ele>
        <time>2022-06-19T08:35:29.000Z</time>
      </trkpt>
      <trkpt lat="47.67517" lon="6.68363">
        <ele>446.2</ele>
        <time>2022-06-19T08:35:37.000Z</time>
      </trkpt>
      <trkpt lat="47.67543" lon="6.68394">
        <ele>445.5</ele>
        <time>2022-06-19T08:35:42.000Z</time>
      </trkpt>
      <trkpt lat="47.67592" lon="6.68483">
        <ele>446.8</ele>
        <time>2022-06-19T08:35:58.000Z</time>
      </trkpt>
      <trkpt lat="47.67608" lon="6.68506">
        <ele>447.4</ele>
        <time>2022-06-19T08:36:03.000Z</time>
      </trkpt>
      <trkpt lat="47.67626" lon="6.68521">
        <ele>447.4</ele>
        <time>2022-06-19T08:36:08.000Z</time>
      </trkpt>
      <trkpt lat="47.67671" lon="6.68543">
        <ele>450.7</ele>
        <time>2022-06-19T08:36:22.000Z</time>
      </trkpt>
      <trkpt lat="47.67687" lon="6.68561">
        <ele>452.9</ele>
        <time>2022-06-19T08:36:30.000Z</time>
      </trkpt>
      <trkpt lat="47.67696" lon="6.68586">
        <ele>453.5</ele>
        <time>2022-06-19T08:36:38.000Z</time>
      </trkpt>
      <trkpt lat="47.67708" lon="6.68649">
        <ele>456.7</ele>
        <time>2022-06-19T08:36:56.000Z</time>
      </trkpt>
      <trkpt lat="47.67718" lon="6.68665">
        <ele>456.7</ele>
        <time>2022-06-19T08:37:01.000Z</time>
      </trkpt>
      <trkpt lat="47.67742" lon="6.68691">
        <ele>457.2</ele>
        <time>2022-06-19T08:37:10.000Z</time>
      </trkpt>
      <trkpt lat="47.67753" lon="6.68713">
        <ele>457.2</ele>
        <time>2022-06-19T08:37:15.000Z</time>
      </trkpt>
      <trkpt lat="47.67775" lon="6.68794">
        <ele>456.1</ele>
        <time>2022-06-19T08:37:26.000Z</time>
      </trkpt>
      <trkpt lat="47.67779" lon="6.6883">
        <ele>455.3</ele>
        <time>2022-06-19T08:37:33.000Z</time>
      </trkpt>
      <trkpt lat="47.67776" lon="6.68839">
        <ele>454.2</ele>
        <time>2022-06-19T08:37:37.000Z</time>
      </trkpt>
      <trkpt lat="47.67743" lon="6.68845">
        <ele>453.6</ele>
        <time>2022-06-19T08:37:49.000Z</time>
      </trkpt>
      <trkpt lat="47.6772" lon="6.6886">
        <ele>454.9</ele>
        <time>2022-06-19T08:37:57.000Z</time>
      </trkpt>
      <trkpt lat="47.67701" lon="6.68893">
        <ele>455.4</ele>
        <time>2022-06-19T08:38:05.000Z</time>
      </trkpt>
      <trkpt lat="47.67689" lon="6.68927">
        <ele>455.4</ele>
        <time>2022-06-19T08:38:12.000Z</time>
      </trkpt>
      <trkpt lat="47.67677" lon="6.68971">
        <ele>455.4</ele>
        <time>2022-06-19T08:38:19.000Z</time>
      </trkpt>
      <trkpt lat="47.67666" lon="6.68992">
        <ele>453.8</ele>
        <time>2022-06-19T08:38:23.000Z</time>
      </trkpt>
      <trkpt lat="47.67653" lon="6.69001">
        <ele>453.8</ele>
        <time>2022-06-19T08:38:26.000Z</time>
      </trkpt>
      <trkpt lat="47.67616" lon="6.69015">
        <ele>451.4</ele>
        <time>2022-06-19T08:38:32.000Z</time>
      </trkpt>
      <trkpt lat="47.67598" lon="6.69028">
        <ele>448.5</ele>
        <time>2022-06-19T08:38:35.000Z</time>
      </trkpt>
      <trkpt lat="47.67578" lon="6.69052">
        <ele>448.5</ele>
        <time>2022-06-19T08:38:39.000Z</time>
      </trkpt>
      <trkpt lat="47.67545" lon="6.69111">
        <ele>447.1</ele>
        <time>2022-06-19T08:38:48.000Z</time>
      </trkpt>
      <trkpt lat="47.67487" lon="6.69159">
        <ele>443.8</ele>
        <time>2022-06-19T08:38:59.000Z</time>
      </trkpt>
      <trkpt lat="47.6747" lon="6.69191">
        <ele>440.9</ele>
        <time>2022-06-19T08:39:03.000Z</time>
      </trkpt>
      <trkpt lat="47.67446" lon="6.69261">
        <ele>438.8</ele>
        <time>2022-06-19T08:39:10.000Z</time>
      </trkpt>
      <trkpt lat="47.67432" lon="6.69285">
        <ele>437.4</ele>
        <time>2022-06-19T08:39:13.000Z</time>
      </trkpt>
      <trkpt lat="47.67416" lon="6.69305">
        <ele>437.4</ele>
        <time>2022-06-19T08:39:16.000Z</time>
      </trkpt>
      <trkpt lat="47.67393" lon="6.69324">
        <ele>436.1</ele>
        <time>2022-06-19T08:39:20.000Z</time>
      </trkpt>
      <trkpt lat="47.67366" lon="6.69339">
        <ele>436.1</ele>
        <time>2022-06-19T08:39:25.000Z</time>
      </trkpt>
      <trkpt lat="47.67346" lon="6.69345">
        <ele>434.9</ele>
        <time>2022-06-19T08:39:29.000Z</time>
      </trkpt>
      <trkpt lat="47.67303" lon="6.69341">
        <ele>435.5</ele>
        <time>2022-06-19T08:39:38.000Z</time>
      </trkpt>
      <trkpt lat="47.67289" lon="6.69348">
        <ele>435.5</ele>
        <time>2022-06-19T08:39:43.000Z</time>
      </trkpt>
      <trkpt lat="47.67275" lon="6.69365">
        <ele>435.5</ele>
        <time>2022-06-19T08:39:48.000Z</time>
      </trkpt>
      <trkpt lat="47.67268" lon="6.6938">
        <ele>436.4</ele>
        <time>2022-06-19T08:39:52.000Z</time>
      </trkpt>
      <trkpt lat="47.67265" lon="6.69401">
        <ele>437.5</ele>
        <time>2022-06-19T08:39:57.000Z</time>
      </trkpt>
      <trkpt lat="47.67271" lon="6.6946">
        <ele>439.5</ele>
        <time>2022-06-19T08:40:11.000Z</time>
      </trkpt>
      <trkpt lat="47.67267" lon="6.69494">
        <ele>439.5</ele>
        <time>2022-06-19T08:40:17.000Z</time>
      </trkpt>
      <trkpt lat="47.67251" lon="6.69518">
        <ele>438.8</ele>
        <time>2022-06-19T08:40:22.000Z</time>
      </trkpt>
      <trkpt lat="47.67208" lon="6.69548">
        <ele>436.7</ele>
        <time>2022-06-19T08:40:30.000Z</time>
      </trkpt>
      <trkpt lat="47.67178" lon="6.69581">
        <ele>435.2</ele>
        <time>2022-06-19T08:40:35.000Z</time>
      </trkpt>
      <trkpt lat="47.67154" lon="6.6962">
        <ele>430.5</ele>
        <time>2022-06-19T08:40:39.000Z</time>
      </trkpt>
      <trkpt lat="47.67126" lon="6.69677">
        <ele>427.1</ele>
        <time>2022-06-19T08:40:45.000Z</time>
      </trkpt>
      <trkpt lat="47.67087" lon="6.69774">
        <ele>424.1</ele>
        <time>2022-06-19T08:40:56.000Z</time>
      </trkpt>
      <trkpt lat="47.67072" lon="6.69827">
        <ele>426.3</ele>
        <time>2022-06-19T08:41:06.000Z</time>
      </trkpt>
      <trkpt lat="47.67056" lon="6.69871">
        <ele>428</ele>
        <time>2022-06-19T08:41:16.000Z</time>
      </trkpt>
      <trkpt lat="47.67035" lon="6.69951">
        <ele>427.4</ele>
        <time>2022-06-19T08:41:28.000Z</time>
      </trkpt>
      <trkpt lat="47.67001" lon="6.70047">
        <ele>423.7</ele>
        <time>2022-06-19T08:41:39.000Z</time>
      </trkpt>
      <trkpt lat="47.66989" lon="6.70095">
        <ele>420.8</ele>
        <time>2022-06-19T08:41:44.000Z</time>
      </trkpt>
      <trkpt lat="47.66996" lon="6.70116">
        <ele>420.8</ele>
        <time>2022-06-19T08:41:45.000Z</time>
      </trkpt>
      <trkpt lat="47.66996" lon="6.70129">
        <ele>420.8</ele>
        <time>2022-06-19T08:41:46.000Z</time>
      </trkpt>
      <trkpt lat="47.66982" lon="6.70162">
        <ele>418.8</ele>
        <time>2022-06-19T08:41:50.000Z</time>
      </trkpt>
      <trkpt lat="47.66979" lon="6.70203">
        <ele>415</ele>
        <time>2022-06-19T08:41:54.000Z</time>
      </trkpt>
      <trkpt lat="47.66982" lon="6.70222">
        <ele>415</ele>
        <time>2022-06-19T08:41:55.000Z</time>
      </trkpt>
      <trkpt lat="47.66989" lon="6.70323">
        <ele>412.3</ele>
        <time>2022-06-19T08:42:03.000Z</time>
      </trkpt>
      <trkpt lat="47.66988" lon="6.70394">
        <ele>408.3</ele>
        <time>2022-06-19T08:42:10.000Z</time>
      </trkpt>
      <trkpt lat="47.66975" lon="6.70467">
        <ele>405.7</ele>
        <time>2022-06-19T08:42:18.000Z</time>
      </trkpt>
      <trkpt lat="47.66939" lon="6.70565">
        <ele>396.1</ele>
        <time>2022-06-19T08:42:33.000Z</time>
      </trkpt>
      <trkpt lat="47.66935" lon="6.70606">
        <ele>396.1</ele>
        <time>2022-06-19T08:42:38.000Z</time>
      </trkpt>
      <trkpt lat="47.66936" lon="6.70668">
        <ele>392.4</ele>
        <time>2022-06-19T08:42:45.000Z</time>
      </trkpt>
      <trkpt lat="47.66931" lon="6.70715">
        <ele>391.2</ele>
        <time>2022-06-19T08:42:51.000Z</time>
      </trkpt>
      <trkpt lat="47.66912" lon="6.70778">
        <ele>390</ele>
        <time>2022-06-19T08:43:01.000Z</time>
      </trkpt>
      <trkpt lat="47.66904" lon="6.70832">
        <ele>389</ele>
        <time>2022-06-19T08:43:12.000Z</time>
      </trkpt>
      <trkpt lat="47.66873" lon="6.7094">
        <ele>384.1</ele>
        <time>2022-06-19T08:43:26.000Z</time>
      </trkpt>
      <trkpt lat="47.66844" lon="6.71069">
        <ele>384.1</ele>
        <time>2022-06-19T08:43:51.000Z</time>
      </trkpt>
      <trkpt lat="47.66815" lon="6.7115">
        <ele>384.7</ele>
        <time>2022-06-19T08:44:08.000Z</time>
      </trkpt>
      <trkpt lat="47.66799" lon="6.7121">
        <ele>384.7</ele>
        <time>2022-06-19T08:44:18.000Z</time>
      </trkpt>
      <trkpt lat="47.66755" lon="6.71314">
        <ele>384.7</ele>
        <time>2022-06-19T08:44:35.000Z</time>
      </trkpt>
      <trkpt lat="47.66721" lon="6.71436">
        <ele>384</ele>
        <time>2022-06-19T08:44:53.000Z</time>
      </trkpt>
      <trkpt lat="47.66702" lon="6.71578">
        <ele>384</ele>
        <time>2022-06-19T08:45:15.000Z</time>
      </trkpt>
      <trkpt lat="47.66675" lon="6.71703">
        <ele>384</ele>
        <time>2022-06-19T08:45:34.000Z</time>
      </trkpt>
      <trkpt lat="47.66664" lon="6.71775">
        <ele>384.7</ele>
        <time>2022-06-19T08:45:45.000Z</time>
      </trkpt>
      <trkpt lat="47.66633" lon="6.71855">
        <ele>383.6</ele>
        <time>2022-06-19T08:45:59.000Z</time>
      </trkpt>
      <trkpt lat="47.66625" lon="6.71859">
        <ele>383.6</ele>
        <time>2022-06-19T08:46:00.000Z</time>
      </trkpt>
      <trkpt lat="47.66624" lon="6.71879">
        <ele>383.6</ele>
        <time>2022-06-19T08:46:03.000Z</time>
      </trkpt>
      <trkpt lat="47.66631" lon="6.71951">
        <ele>383.6</ele>
        <time>2022-06-19T08:46:15.000Z</time>
      </trkpt>
      <trkpt lat="47.66631" lon="6.71986">
        <ele>383.6</ele>
        <time>2022-06-19T08:46:20.000Z</time>
      </trkpt>
      <trkpt lat="47.66609" lon="6.72101">
        <ele>383.6</ele>
        <time>2022-06-19T08:46:39.000Z</time>
      </trkpt>
      <trkpt lat="47.66558" lon="6.72246">
        <ele>383.6</ele>
        <time>2022-06-19T08:47:06.000Z</time>
      </trkpt>
      <trkpt lat="47.66518" lon="6.72324">
        <ele>384.2</ele>
        <time>2022-06-19T08:47:21.000Z</time>
      </trkpt>
      <trkpt lat="47.66483" lon="6.72402">
        <ele>384.2</ele>
        <time>2022-06-19T08:47:34.000Z</time>
      </trkpt>
      <trkpt lat="47.6643" lon="6.72541">
        <ele>384.9</ele>
        <time>2022-06-19T08:47:59.000Z</time>
      </trkpt>
      <trkpt lat="47.66418" lon="6.72598">
        <ele>384.3</ele>
        <time>2022-06-19T08:48:10.000Z</time>
      </trkpt>
      <trkpt lat="47.66395" lon="6.72664">
        <ele>384.3</ele>
        <time>2022-06-19T08:48:20.000Z</time>
      </trkpt>
      <trkpt lat="47.66389" lon="6.72691">
        <ele>384.3</ele>
        <time>2022-06-19T08:48:24.000Z</time>
      </trkpt>
      <trkpt lat="47.66376" lon="6.72843">
        <ele>381</ele>
        <time>2022-06-19T08:48:48.000Z</time>
      </trkpt>
      <trkpt lat="47.66377" lon="6.72871">
        <ele>381.9</ele>
        <time>2022-06-19T08:48:54.000Z</time>
      </trkpt>
      <trkpt lat="47.66386" lon="6.72924">
        <ele>385</ele>
        <time>2022-06-19T08:49:08.000Z</time>
      </trkpt>
      <trkpt lat="47.66453" lon="6.73201">
        <ele>391.2</ele>
        <time>2022-06-19T08:50:18.000Z</time>
      </trkpt>
      <trkpt lat="47.66464" lon="6.73237">
        <ele>391.2</ele>
        <time>2022-06-19T08:50:28.000Z</time>
      </trkpt>
      <trkpt lat="47.6647" lon="6.73241">
        <ele>391.2</ele>
        <time>2022-06-19T08:50:31.000Z</time>
      </trkpt>
      <trkpt lat="47.66479" lon="6.73235">
        <ele>391.2</ele>
        <time>2022-06-19T08:50:35.000Z</time>
      </trkpt>
      <trkpt lat="47.66499" lon="6.73196">
        <ele>391.2</ele>
        <time>2022-06-19T08:50:44.000Z</time>
      </trkpt>
      <trkpt lat="47.66506" lon="6.73189">
        <ele>392.1</ele>
        <time>2022-06-19T08:50:47.000Z</time>
      </trkpt>
      <trkpt lat="47.66545" lon="6.73196">
        <ele>390.5</ele>
        <time>2022-06-19T08:50:56.000Z</time>
      </trkpt>
      <trkpt lat="47.66572" lon="6.73193">
        <ele>387.4</ele>
        <time>2022-06-19T08:51:01.000Z</time>
      </trkpt>
      <trkpt lat="47.66583" lon="6.73197">
        <ele>387.4</ele>
        <time>2022-06-19T08:51:04.000Z</time>
      </trkpt>
      <trkpt lat="47.66592" lon="6.73206">
        <ele>387.4</ele>
        <time>2022-06-19T08:51:07.000Z</time>
      </trkpt>
      <trkpt lat="47.66616" lon="6.73258">
        <ele>386.8</ele>
        <time>2022-06-19T08:51:16.000Z</time>
      </trkpt>
      <trkpt lat="47.66649" lon="6.73309">
        <ele>384</ele>
        <time>2022-06-19T08:51:25.000Z</time>
      </trkpt>
      <trkpt lat="47.6667" lon="6.73373">
        <ele>387.1</ele>
        <time>2022-06-19T08:51:40.000Z</time>
      </trkpt>
      <trkpt lat="47.66704" lon="6.7342">
        <ele>387.8</ele>
        <time>2022-06-19T08:51:53.000Z</time>
      </trkpt>
      <trkpt lat="47.66751" lon="6.73452">
        <ele>386.3</ele>
        <time>2022-06-19T08:52:05.000Z</time>
      </trkpt>
      <trkpt lat="47.66795" lon="6.73512">
        <ele>385</ele>
        <time>2022-06-19T08:52:15.000Z</time>
      </trkpt>
      <trkpt lat="47.66817" lon="6.73534">
        <ele>382</ele>
        <time>2022-06-19T08:52:19.000Z</time>
      </trkpt>
      <trkpt lat="47.66843" lon="6.73546">
        <ele>382</ele>
        <time>2022-06-19T08:52:23.000Z</time>
      </trkpt>
      <trkpt lat="47.66886" lon="6.73555">
        <ele>380</ele>
        <time>2022-06-19T08:52:31.000Z</time>
      </trkpt>
      <trkpt lat="47.66896" lon="6.73562">
        <ele>380</ele>
        <time>2022-06-19T08:52:34.000Z</time>
      </trkpt>
      <trkpt lat="47.66899" lon="6.73574">
        <ele>380</ele>
        <time>2022-06-19T08:52:38.000Z</time>
      </trkpt>
      <trkpt lat="47.6689" lon="6.73589">
        <ele>378.9</ele>
        <time>2022-06-19T08:52:43.000Z</time>
      </trkpt>
      <trkpt lat="47.66877" lon="6.73594">
        <ele>378.9</ele>
        <time>2022-06-19T08:52:47.000Z</time>
      </trkpt>
      <trkpt lat="47.66829" lon="6.73574">
        <ele>378.9</ele>
        <time>2022-06-19T08:52:58.000Z</time>
      </trkpt>
      <trkpt lat="47.66759" lon="6.73576">
        <ele>378.9</ele>
        <time>2022-06-19T08:53:13.000Z</time>
      </trkpt>
      <trkpt lat="47.6669" lon="6.7364">
        <ele>378.1</ele>
        <time>2022-06-19T08:53:32.000Z</time>
      </trkpt>
      <trkpt lat="47.66655" lon="6.7368">
        <ele>378.6</ele>
        <time>2022-06-19T08:53:42.000Z</time>
      </trkpt>
      <trkpt lat="47.66638" lon="6.73685">
        <ele>378.6</ele>
        <time>2022-06-19T08:53:46.000Z</time>
      </trkpt>
      <trkpt lat="47.66622" lon="6.73678">
        <ele>378.6</ele>
        <time>2022-06-19T08:53:50.000Z</time>
      </trkpt>
      <trkpt lat="47.66606" lon="6.73657">
        <ele>378.6</ele>
        <time>2022-06-19T08:53:55.000Z</time>
      </trkpt>
      <trkpt lat="47.66597" lon="6.73624">
        <ele>378.6</ele>
        <time>2022-06-19T08:54:01.000Z</time>
      </trkpt>
      <trkpt lat="47.66592" lon="6.73478">
        <ele>378.6</ele>
        <time>2022-06-19T08:54:23.000Z</time>
      </trkpt>
      <trkpt lat="47.66577" lon="6.73379">
        <ele>378.6</ele>
        <time>2022-06-19T08:54:38.000Z</time>
      </trkpt>
      <trkpt lat="47.66536" lon="6.73288">
        <ele>379.2</ele>
        <time>2022-06-19T08:54:58.000Z</time>
      </trkpt>
      <trkpt lat="47.66524" lon="6.7327">
        <ele>379.2</ele>
        <time>2022-06-19T08:55:03.000Z</time>
      </trkpt>
      <trkpt lat="47.66518" lon="6.7327">
        <ele>379.2</ele>
        <time>2022-06-19T08:55:08.000Z</time>
      </trkpt>
      <trkpt lat="47.66511" lon="6.73311">
        <ele>379.2</ele>
        <time>2022-06-19T08:55:19.000Z</time>
      </trkpt>
      <trkpt lat="47.66491" lon="6.73366">
        <ele>379.2</ele>
        <time>2022-06-19T08:55:29.000Z</time>
      </trkpt>
      <trkpt lat="47.66487" lon="6.73399">
        <ele>379.2</ele>
        <time>2022-06-19T08:55:33.000Z</time>
      </trkpt>
      <trkpt lat="47.6649" lon="6.73437">
        <ele>379.2</ele>
        <time>2022-06-19T08:55:37.000Z</time>
      </trkpt>
      <trkpt lat="47.6651" lon="6.73535">
        <ele>378.3</ele>
        <time>2022-06-19T08:55:48.000Z</time>
      </trkpt>
      <trkpt lat="47.66516" lon="6.73587">
        <ele>378.3</ele>
        <time>2022-06-19T08:55:54.000Z</time>
      </trkpt>
      <trkpt lat="47.66515" lon="6.73702">
        <ele>379</ele>
        <time>2022-06-19T08:56:07.000Z</time>
      </trkpt>
      <trkpt lat="47.66506" lon="6.73773">
        <ele>378.3</ele>
        <time>2022-06-19T08:56:15.000Z</time>
      </trkpt>
      <trkpt lat="47.66358" lon="6.74266">
        <ele>379.5</ele>
        <time>2022-06-19T08:57:18.000Z</time>
      </trkpt>
      <trkpt lat="47.66336" lon="6.74351">
        <ele>378.9</ele>
        <time>2022-06-19T08:57:30.000Z</time>
      </trkpt>
      <trkpt lat="47.66279" lon="6.74501">
        <ele>379.4</ele>
        <time>2022-06-19T08:57:53.000Z</time>
      </trkpt>
      <trkpt lat="47.66217" lon="6.7471">
        <ele>377.8</ele>
        <time>2022-06-19T08:58:20.000Z</time>
      </trkpt>
      <trkpt lat="47.66193" lon="6.74801">
        <ele>378.3</ele>
        <time>2022-06-19T08:58:37.000Z</time>
      </trkpt>
      <trkpt lat="47.66195" lon="6.74807">
        <ele>379</ele>
        <time>2022-06-19T08:58:40.000Z</time>
      </trkpt>
      <trkpt lat="47.66215" lon="6.74819">
        <ele>381.5</ele>
        <time>2022-06-19T08:58:49.000Z</time>
      </trkpt>
      <trkpt lat="47.66215" lon="6.74838">
        <ele>381.5</ele>
        <time>2022-06-19T08:58:54.000Z</time>
      </trkpt>
      <trkpt lat="47.66167" lon="6.74965">
        <ele>382.1</ele>
        <time>2022-06-19T08:59:14.000Z</time>
      </trkpt>
      <trkpt lat="47.66146" lon="6.75047">
        <ele>382.1</ele>
        <time>2022-06-19T08:59:26.000Z</time>
      </trkpt>
      <trkpt lat="47.66135" lon="6.75113">
        <ele>380.9</ele>
        <time>2022-06-19T08:59:35.000Z</time>
      </trkpt>
      <trkpt lat="47.66118" lon="6.75246">
        <ele>378.5</ele>
        <time>2022-06-19T08:59:51.000Z</time>
      </trkpt>
      <trkpt lat="47.66113" lon="6.75384">
        <ele>373.3</ele>
        <time>2022-06-19T09:00:03.000Z</time>
      </trkpt>
      <trkpt lat="47.66116" lon="6.75408">
        <ele>370.9</ele>
        <time>2022-06-19T09:00:06.000Z</time>
      </trkpt>
      <trkpt lat="47.66123" lon="6.75418">
        <ele>370.9</ele>
        <time>2022-06-19T09:00:08.000Z</time>
      </trkpt>
      <trkpt lat="47.66131" lon="6.7545">
        <ele>370.4</ele>
        <time>2022-06-19T09:00:14.000Z</time>
      </trkpt>
      <trkpt lat="47.66134" lon="6.75511">
        <ele>374.5</ele>
        <time>2022-06-19T09:00:30.000Z</time>
      </trkpt>
      <trkpt lat="47.66154" lon="6.75632">
        <ele>376.9</ele>
        <time>2022-06-19T09:00:55.000Z</time>
      </trkpt>
      <trkpt lat="47.66156" lon="6.75671">
        <ele>376.9</ele>
        <time>2022-06-19T09:01:01.000Z</time>
      </trkpt>
      <trkpt lat="47.66151" lon="6.75742">
        <ele>376.9</ele>
        <time>2022-06-19T09:01:12.000Z</time>
      </trkpt>
      <trkpt lat="47.66154" lon="6.75826">
        <ele>380.8</ele>
        <time>2022-06-19T09:01:28.000Z</time>
      </trkpt>
      <trkpt lat="47.66161" lon="6.75849">
        <ele>382.1</ele>
        <time>2022-06-19T09:01:34.000Z</time>
      </trkpt>
      <trkpt lat="47.66175" lon="6.75862">
        <ele>382.1</ele>
        <time>2022-06-19T09:01:40.000Z</time>
      </trkpt>
      <trkpt lat="47.66276" lon="6.75881">
        <ele>386.9</ele>
        <time>2022-06-19T09:02:13.000Z</time>
      </trkpt>
      <trkpt lat="47.66305" lon="6.75902">
        <ele>389</ele>
        <time>2022-06-19T09:02:27.000Z</time>
      </trkpt>
      <trkpt lat="47.66316" lon="6.75923">
        <ele>390.8</ele>
        <time>2022-06-19T09:02:35.000Z</time>
      </trkpt>
      <trkpt lat="47.66326" lon="6.75959">
        <ele>393</ele>
        <time>2022-06-19T09:02:45.000Z</time>
      </trkpt>
      <trkpt lat="47.66335" lon="6.7604">
        <ele>396.1</ele>
        <time>2022-06-19T09:03:07.000Z</time>
      </trkpt>
      <trkpt lat="47.6635" lon="6.76132">
        <ele>400.9</ele>
        <time>2022-06-19T09:03:35.000Z</time>
      </trkpt>
      <trkpt lat="47.66355" lon="6.76155">
        <ele>401.7</ele>
        <time>2022-06-19T09:03:42.000Z</time>
      </trkpt>
      <trkpt lat="47.66363" lon="6.76172">
        <ele>402.2</ele>
        <time>2022-06-19T09:03:48.000Z</time>
      </trkpt>
      <trkpt lat="47.66391" lon="6.76196">
        <ele>402.9</ele>
        <time>2022-06-19T09:04:00.000Z</time>
      </trkpt>
      <trkpt lat="47.66458" lon="6.76205">
        <ele>405.1</ele>
        <time>2022-06-19T09:04:22.000Z</time>
      </trkpt>
      <trkpt lat="47.66499" lon="6.7623">
        <ele>409.2</ele>
        <time>2022-06-19T09:04:40.000Z</time>
      </trkpt>
      <trkpt lat="47.66545" lon="6.76274">
        <ele>411.8</ele>
        <time>2022-06-19T09:05:03.000Z</time>
      </trkpt>
      <trkpt lat="47.66622" lon="6.76362">
        <ele>411.3</ele>
        <time>2022-06-19T09:05:24.000Z</time>
      </trkpt>
      <trkpt lat="47.66639" lon="6.76389">
        <ele>410.6</ele>
        <time>2022-06-19T09:05:29.000Z</time>
      </trkpt>
      <trkpt lat="47.66653" lon="6.76426">
        <ele>410.6</ele>
        <time>2022-06-19T09:05:35.000Z</time>
      </trkpt>
      <trkpt lat="47.66672" lon="6.76492">
        <ele>412.7</ele>
        <time>2022-06-19T09:05:47.000Z</time>
      </trkpt>
      <trkpt lat="47.6668" lon="6.76585">
        <ele>414.9</ele>
        <time>2022-06-19T09:06:04.000Z</time>
      </trkpt>
      <trkpt lat="47.66697" lon="6.76663">
        <ele>418.2</ele>
        <time>2022-06-19T09:06:21.000Z</time>
      </trkpt>
      <trkpt lat="47.66771" lon="6.7691">
        <ele>419.6</ele>
        <time>2022-06-19T09:07:07.000Z</time>
      </trkpt>
      <trkpt lat="47.66799" lon="6.76994">
        <ele>419.6</ele>
        <time>2022-06-19T09:07:22.000Z</time>
      </trkpt>
      <trkpt lat="47.66821" lon="6.77087">
        <ele>416.8</ele>
        <time>2022-06-19T09:07:34.000Z</time>
      </trkpt>
      <trkpt lat="47.66832" lon="6.77148">
        <ele>416.8</ele>
        <time>2022-06-19T09:07:41.000Z</time>
      </trkpt>
      <trkpt lat="47.66835" lon="6.77242">
        <ele>416.8</ele>
        <time>2022-06-19T09:07:55.000Z</time>
      </trkpt>
      <trkpt lat="47.66842" lon="6.77302">
        <ele>417.9</ele>
        <time>2022-06-19T09:08:05.000Z</time>
      </trkpt>
      <trkpt lat="47.66843" lon="6.77353">
        <ele>417.2</ele>
        <time>2022-06-19T09:08:11.000Z</time>
      </trkpt>
      <trkpt lat="47.66838" lon="6.77396">
        <ele>415.6</ele>
        <time>2022-06-19T09:08:15.000Z</time>
      </trkpt>
      <trkpt lat="47.66819" lon="6.775">
        <ele>411.1</ele>
        <time>2022-06-19T09:08:24.000Z</time>
      </trkpt>
      <trkpt lat="47.66816" lon="6.77592">
        <ele>410.4</ele>
        <time>2022-06-19T09:08:33.000Z</time>
      </trkpt>
      <trkpt lat="47.66807" lon="6.77674">
        <ele>409.5</ele>
        <time>2022-06-19T09:08:42.000Z</time>
      </trkpt>
      <trkpt lat="47.66806" lon="6.7771">
        <ele>408.4</ele>
        <time>2022-06-19T09:08:46.000Z</time>
      </trkpt>
      <trkpt lat="47.66823" lon="6.779">
        <ele>408.5</ele>
        <time>2022-06-19T09:09:09.000Z</time>
      </trkpt>
      <trkpt lat="47.66841" lon="6.77974">
        <ele>406.7</ele>
        <time>2022-06-19T09:09:19.000Z</time>
      </trkpt>
      <trkpt lat="47.66856" lon="6.78006">
        <ele>406.7</ele>
        <time>2022-06-19T09:09:25.000Z</time>
      </trkpt>
      <trkpt lat="47.66883" lon="6.78035">
        <ele>406.7</ele>
        <time>2022-06-19T09:09:32.000Z</time>
      </trkpt>
      <trkpt lat="47.66915" lon="6.78056">
        <ele>406.7</ele>
        <time>2022-06-19T09:09:39.000Z</time>
      </trkpt>
      <trkpt lat="47.66945" lon="6.78064">
        <ele>406.7</ele>
        <time>2022-06-19T09:09:45.000Z</time>
      </trkpt>
      <trkpt lat="47.66998" lon="6.78064">
        <ele>407.2</ele>
        <time>2022-06-19T09:09:56.000Z</time>
      </trkpt>
      <trkpt lat="47.67025" lon="6.7807">
        <ele>407.2</ele>
        <time>2022-06-19T09:10:02.000Z</time>
      </trkpt>
      <trkpt lat="47.6708" lon="6.781">
        <ele>406.2</ele>
        <time>2022-06-19T09:10:14.000Z</time>
      </trkpt>
      <trkpt lat="47.67141" lon="6.78122">
        <ele>406.9</ele>
        <time>2022-06-19T09:10:27.000Z</time>
      </trkpt>
      <trkpt lat="47.67262" lon="6.78185">
        <ele>410.5</ele>
        <time>2022-06-19T09:10:58.000Z</time>
      </trkpt>
      <trkpt lat="47.67315" lon="6.78217">
        <ele>410.5</ele>
        <time>2022-06-19T09:11:11.000Z</time>
      </trkpt>
      <trkpt lat="47.67383" lon="6.78245">
        <ele>410.3</ele>
        <time>2022-06-19T09:11:28.000Z</time>
      </trkpt>
      <trkpt lat="47.67428" lon="6.78269">
        <ele>409</ele>
        <time>2022-06-19T09:11:36.000Z</time>
      </trkpt>
      <trkpt lat="47.67528" lon="6.78357">
        <ele>407.1</ele>
        <time>2022-06-19T09:11:54.000Z</time>
      </trkpt>
      <trkpt lat="47.67574" lon="6.78406">
        <ele>407.1</ele>
        <time>2022-06-19T09:12:04.000Z</time>
      </trkpt>
      <trkpt lat="47.67666" lon="6.78477">
        <ele>407.1</ele>
        <time>2022-06-19T09:12:24.000Z</time>
      </trkpt>
      <trkpt lat="47.67717" lon="6.78538">
        <ele>410.4</ele>
        <time>2022-06-19T09:12:45.000Z</time>
      </trkpt>
      <trkpt lat="47.67766" lon="6.7857">
        <ele>409.1</ele>
        <time>2022-06-19T09:13:13.000Z</time>
      </trkpt>
      <trkpt lat="47.67825" lon="6.78599">
        <ele>407.1</ele>
        <time>2022-06-19T09:13:24.000Z</time>
      </trkpt>
      <trkpt lat="47.67885" lon="6.78649">
        <ele>407.1</ele>
        <time>2022-06-19T09:13:37.000Z</time>
      </trkpt>
      <trkpt lat="47.67915" lon="6.78662">
        <ele>406.6</ele>
        <time>2022-06-19T09:13:43.000Z</time>
      </trkpt>
      <trkpt lat="47.67943" lon="6.78666">
        <ele>406.6</ele>
        <time>2022-06-19T09:13:48.000Z</time>
      </trkpt>
      <trkpt lat="47.68047" lon="6.78664">
        <ele>403.8</ele>
        <time>2022-06-19T09:14:07.000Z</time>
      </trkpt>
      <trkpt lat="47.68078" lon="6.78668">
        <ele>405.5</ele>
        <time>2022-06-19T09:14:14.000Z</time>
      </trkpt>
      <trkpt lat="47.681" lon="6.78678">
        <ele>405.5</ele>
        <time>2022-06-19T09:14:19.000Z</time>
      </trkpt>
      <trkpt lat="47.68118" lon="6.78692">
        <ele>405.5</ele>
        <time>2022-06-19T09:14:23.000Z</time>
      </trkpt>
      <trkpt lat="47.6813" lon="6.78706">
        <ele>405.5</ele>
        <time>2022-06-19T09:14:26.000Z</time>
      </trkpt>
      <trkpt lat="47.68142" lon="6.78731">
        <ele>406.4</ele>
        <time>2022-06-19T09:14:30.000Z</time>
      </trkpt>
      <trkpt lat="47.68166" lon="6.78822">
        <ele>407</ele>
        <time>2022-06-19T09:14:42.000Z</time>
      </trkpt>
      <trkpt lat="47.68225" lon="6.79104">
        <ele>410.4</ele>
        <time>2022-06-19T09:15:17.000Z</time>
      </trkpt>
      <trkpt lat="47.68252" lon="6.79399">
        <ele>405.1</ele>
        <time>2022-06-19T09:15:46.000Z</time>
      </trkpt>
      <trkpt lat="47.68253" lon="6.79438">
        <ele>405.1</ele>
        <time>2022-06-19T09:15:50.000Z</time>
      </trkpt>
      <trkpt lat="47.68236" lon="6.79548">
        <ele>405.1</ele>
        <time>2022-06-19T09:16:03.000Z</time>
      </trkpt>
      <trkpt lat="47.68226" lon="6.79701">
        <ele>407.3</ele>
        <time>2022-06-19T09:16:21.000Z</time>
      </trkpt>
      <trkpt lat="47.68206" lon="6.79874">
        <ele>404.3</ele>
        <time>2022-06-19T09:16:38.000Z</time>
      </trkpt>
      <trkpt lat="47.68183" lon="6.79984">
        <ele>402.2</ele>
        <time>2022-06-19T09:16:49.000Z</time>
      </trkpt>
      <trkpt lat="47.68152" lon="6.80071">
        <ele>402.8</ele>
        <time>2022-06-19T09:17:00.000Z</time>
      </trkpt>
      <trkpt lat="47.68144" lon="6.80101">
        <ele>402.8</ele>
        <time>2022-06-19T09:17:04.000Z</time>
      </trkpt>
      <trkpt lat="47.68134" lon="6.80212">
        <ele>401.9</ele>
        <time>2022-06-19T09:17:16.000Z</time>
      </trkpt>
      <trkpt lat="47.6811" lon="6.80322">
        <ele>400.6</ele>
        <time>2022-06-19T09:17:28.000Z</time>
      </trkpt>
      <trkpt lat="47.68108" lon="6.80359">
        <ele>399.8</ele>
        <time>2022-06-19T09:17:32.000Z</time>
      </trkpt>
      <trkpt lat="47.68126" lon="6.80462">
        <ele>397.3</ele>
        <time>2022-06-19T09:17:42.000Z</time>
      </trkpt>
      <trkpt lat="47.68134" lon="6.80541">
        <ele>392.7</ele>
        <time>2022-06-19T09:17:54.000Z</time>
      </trkpt>
      <trkpt lat="47.6816" lon="6.80607">
        <ele>392.7</ele>
        <time>2022-06-19T09:18:08.000Z</time>
      </trkpt>
      <trkpt lat="47.68213" lon="6.80808">
        <ele>392.2</ele>
        <time>2022-06-19T09:18:33.000Z</time>
      </trkpt>
      <trkpt lat="47.68275" lon="6.81031">
        <ele>391.5</ele>
        <time>2022-06-19T09:19:00.000Z</time>
      </trkpt>
      <trkpt lat="47.68293" lon="6.81083">
        <ele>391.5</ele>
        <time>2022-06-19T09:19:08.000Z</time>
      </trkpt>
      <trkpt lat="47.68306" lon="6.81099">
        <ele>392.1</ele>
        <time>2022-06-19T09:19:12.000Z</time>
      </trkpt>
      <trkpt lat="47.68356" lon="6.81139">
        <ele>391.5</ele>
        <time>2022-06-19T09:19:28.000Z</time>
      </trkpt>
      <trkpt lat="47.68374" lon="6.81142">
        <ele>391.5</ele>
        <time>2022-06-19T09:19:35.000Z</time>
      </trkpt>
      <trkpt lat="47.68381" lon="6.81136">
        <ele>391.5</ele>
        <time>2022-06-19T09:19:38.000Z</time>
      </trkpt>
      <trkpt lat="47.68385" lon="6.8112">
        <ele>392.5</ele>
        <time>2022-06-19T09:19:42.000Z</time>
      </trkpt>
      <trkpt lat="47.68382" lon="6.8106">
        <ele>393</ele>
        <time>2022-06-19T09:19:54.000Z</time>
      </trkpt>
      <trkpt lat="47.68385" lon="6.81045">
        <ele>393</ele>
        <time>2022-06-19T09:19:58.000Z</time>
      </trkpt>
      <trkpt lat="47.68391" lon="6.81035">
        <ele>391.8</ele>
        <time>2022-06-19T09:20:02.000Z</time>
      </trkpt>
      <trkpt lat="47.68409" lon="6.81025">
        <ele>392.6</ele>
        <time>2022-06-19T09:20:09.000Z</time>
      </trkpt>
      <trkpt lat="47.68425" lon="6.81008">
        <ele>393.2</ele>
        <time>2022-06-19T09:20:37.000Z</time>
      </trkpt>
      <trkpt lat="47.68421" lon="6.81018">
        <ele>393.2</ele>
        <time>2022-06-19T09:20:50.000Z</time>
      </trkpt>
      <trkpt lat="47.68413" lon="6.81026">
        <ele>393.2</ele>
        <time>2022-06-19T09:20:54.000Z</time>
      </trkpt>
      <trkpt lat="47.68386" lon="6.81033">
        <ele>392.5</ele>
        <time>2022-06-19T09:21:05.000Z</time>
      </trkpt>
      <trkpt lat="47.68383" lon="6.8102">
        <ele>391.6</ele>
        <time>2022-06-19T09:21:11.000Z</time>
      </trkpt>
      <trkpt lat="47.6839" lon="6.80989">
        <ele>391.6</ele>
        <time>2022-06-19T09:21:22.000Z</time>
      </trkpt>
      <trkpt lat="47.68393" lon="6.80985">
        <ele>393.6</ele>
        <time>2022-06-19T09:21:33.000Z</time>
      </trkpt>
      <trkpt lat="47.68394" lon="6.80987">
        <ele>391.6</ele>
        <time>2022-06-19T09:21:57.000Z</time>
      </trkpt>
      <trkpt lat="47.68384" lon="6.81023">
        <ele>391</ele>
        <time>2022-06-19T09:22:15.000Z</time>
      </trkpt>
      <trkpt lat="47.68382" lon="6.81051">
        <ele>391</ele>
        <time>2022-06-19T09:22:22.000Z</time>
      </trkpt>
      <trkpt lat="47.68386" lon="6.8111">
        <ele>391.8</ele>
        <time>2022-06-19T09:22:37.000Z</time>
      </trkpt>
      <trkpt lat="47.6838" lon="6.81122">
        <ele>391.8</ele>
        <time>2022-06-19T09:22:42.000Z</time>
      </trkpt>
      <trkpt lat="47.68366" lon="6.8112">
        <ele>391.8</ele>
        <time>2022-06-19T09:22:47.000Z</time>
      </trkpt>
      <trkpt lat="47.68332" lon="6.81099">
        <ele>390.3</ele>
        <time>2022-06-19T09:22:58.000Z</time>
      </trkpt>
      <trkpt lat="47.68303" lon="6.81064">
        <ele>390.3</ele>
        <time>2022-06-19T09:23:10.000Z</time>
      </trkpt>
      <trkpt lat="47.6829" lon="6.81036">
        <ele>389.7</ele>
        <time>2022-06-19T09:23:16.000Z</time>
      </trkpt>
      <trkpt lat="47.6825" lon="6.80903">
        <ele>390.2</ele>
        <time>2022-06-19T09:23:40.000Z</time>
      </trkpt>
      <trkpt lat="47.68195" lon="6.80695">
        <ele>390.7</ele>
        <time>2022-06-19T09:24:17.000Z</time>
      </trkpt>
      <trkpt lat="47.68169" lon="6.80635">
        <ele>391.8</ele>
        <time>2022-06-19T09:24:30.000Z</time>
      </trkpt>
      <trkpt lat="47.68158" lon="6.80591">
        <ele>391.8</ele>
        <time>2022-06-19T09:24:38.000Z</time>
      </trkpt>
      <trkpt lat="47.68159" lon="6.80559">
        <ele>392.7</ele>
        <time>2022-06-19T09:24:44.000Z</time>
      </trkpt>
      <trkpt lat="47.68212" lon="6.80391">
        <ele>392.8</ele>
        <time>2022-06-19T09:25:12.000Z</time>
      </trkpt>
      <trkpt lat="47.6825" lon="6.80286">
        <ele>392.8</ele>
        <time>2022-06-19T09:25:31.000Z</time>
      </trkpt>
      <trkpt lat="47.68255" lon="6.80267">
        <ele>393.8</ele>
        <time>2022-06-19T09:25:34.000Z</time>
      </trkpt>
      <trkpt lat="47.68268" lon="6.80238">
        <ele>393.8</ele>
        <time>2022-06-19T09:25:39.000Z</time>
      </trkpt>
      <trkpt lat="47.68299" lon="6.8013">
        <ele>394.1</ele>
        <time>2022-06-19T09:25:56.000Z</time>
      </trkpt>
      <trkpt lat="47.68344" lon="6.80008">
        <ele>398.6</ele>
        <time>2022-06-19T09:26:21.000Z</time>
      </trkpt>
      <trkpt lat="47.68373" lon="6.79902">
        <ele>394.6</ele>
        <time>2022-06-19T09:26:33.000Z</time>
      </trkpt>
      <trkpt lat="47.68413" lon="6.79793">
        <ele>398.3</ele>
        <time>2022-06-19T09:26:53.000Z</time>
      </trkpt>
      <trkpt lat="47.6846" lon="6.79616">
        <ele>397.3</ele>
        <time>2022-06-19T09:27:21.000Z</time>
      </trkpt>
      <trkpt lat="47.68502" lon="6.79492">
        <ele>393.9</ele>
        <time>2022-06-19T09:27:37.000Z</time>
      </trkpt>
      <trkpt lat="47.68519" lon="6.79456">
        <ele>393</ele>
        <time>2022-06-19T09:27:43.000Z</time>
      </trkpt>
      <trkpt lat="47.68546" lon="6.79416">
        <ele>393</ele>
        <time>2022-06-19T09:27:55.000Z</time>
      </trkpt>
      <trkpt lat="47.68551" lon="6.79399">
        <ele>393</ele>
        <time>2022-06-19T09:28:08.000Z</time>
      </trkpt>
      <trkpt lat="47.68563" lon="6.79381">
        <ele>392.4</ele>
        <time>2022-06-19T09:28:16.000Z</time>
      </trkpt>
      <trkpt lat="47.68577" lon="6.79336">
        <ele>391.9</ele>
        <time>2022-06-19T09:28:29.000Z</time>
      </trkpt>
      <trkpt lat="47.68593" lon="6.79313">
        <ele>391.9</ele>
        <time>2022-06-19T09:28:37.000Z</time>
      </trkpt>
      <trkpt lat="47.68617" lon="6.79286">
        <ele>393.2</ele>
        <time>2022-06-19T09:28:48.000Z</time>
      </trkpt>
      <trkpt lat="47.68633" lon="6.7926">
        <ele>394</ele>
        <time>2022-06-19T09:28:56.000Z</time>
      </trkpt>
      <trkpt lat="47.68661" lon="6.79174">
        <ele>392</ele>
        <time>2022-06-19T09:29:15.000Z</time>
      </trkpt>
      <trkpt lat="47.6867" lon="6.79157">
        <ele>392</ele>
        <time>2022-06-19T09:29:20.000Z</time>
      </trkpt>
      <trkpt lat="47.68685" lon="6.79145">
        <ele>392</ele>
        <time>2022-06-19T09:29:26.000Z</time>
      </trkpt>
      <trkpt lat="47.6873" lon="6.7914">
        <ele>392</ele>
        <time>2022-06-19T09:29:39.000Z</time>
      </trkpt>
      <trkpt lat="47.6874" lon="6.79131">
        <ele>392</ele>
        <time>2022-06-19T09:29:43.000Z</time>
      </trkpt>
      <trkpt lat="47.68758" lon="6.79102">
        <ele>392</ele>
        <time>2022-06-19T09:29:53.000Z</time>
      </trkpt>
      <trkpt lat="47.68771" lon="6.79048">
        <ele>392.8</ele>
        <time>2022-06-19T09:30:11.000Z</time>
      </trkpt>
      <trkpt lat="47.68758" lon="6.78969">
        <ele>395</ele>
        <time>2022-06-19T09:30:31.000Z</time>
      </trkpt>
      <trkpt lat="47.68768" lon="6.78889">
        <ele>394.5</ele>
        <time>2022-06-19T09:30:43.000Z</time>
      </trkpt>
      <trkpt lat="47.68771" lon="6.78814">
        <ele>395.7</ele>
        <time>2022-06-19T09:30:56.000Z</time>
      </trkpt>
      <trkpt lat="47.6878" lon="6.78745">
        <ele>396.2</ele>
        <time>2022-06-19T09:31:10.000Z</time>
      </trkpt>
      <trkpt lat="47.68778" lon="6.78732">
        <ele>396.2</ele>
        <time>2022-06-19T09:31:14.000Z</time>
      </trkpt>
      <trkpt lat="47.68767" lon="6.7871">
        <ele>398.7</ele>
        <time>2022-06-19T09:31:26.000Z</time>
      </trkpt>
      <trkpt lat="47.68765" lon="6.78705">
        <ele>398.7</ele>
        <time>2022-06-19T09:31:45.000Z</time>
      </trkpt>
      <trkpt lat="47.68767" lon="6.78705">
        <ele>398.7</ele>
        <time>2022-06-19T09:32:33.000Z</time>
      </trkpt>
      <trkpt lat="47.68762" lon="6.78704">
        <ele>398.2</ele>
        <time>2022-06-19T09:33:10.000Z</time>
      </trkpt>
      <trkpt lat="47.68766" lon="6.78703">
        <ele>398.7</ele>
        <time>2022-06-19T09:34:03.000Z</time>
      </trkpt>
      <trkpt lat="47.68765" lon="6.78698">
        <ele>398.7</ele>
        <time>2022-06-19T09:34:24.000Z</time>
      </trkpt>
      <trkpt lat="47.6877" lon="6.78699">
        <ele>398.7</ele>
        <time>2022-06-19T09:35:17.000Z</time>
      </trkpt>
      <trkpt lat="47.68753" lon="6.78689">
        <ele>398.7</ele>
        <time>2022-06-19T09:35:36.000Z</time>
      </trkpt>
      <trkpt lat="47.68728" lon="6.78683">
        <ele>399.3</ele>
        <time>2022-06-19T09:35:42.000Z</time>
      </trkpt>
      <trkpt lat="47.68667" lon="6.78677">
        <ele>395.9</ele>
        <time>2022-06-19T09:35:55.000Z</time>
      </trkpt>
      <trkpt lat="47.68615" lon="6.78685">
        <ele>396.5</ele>
        <time>2022-06-19T09:36:07.000Z</time>
      </trkpt>
      <trkpt lat="47.68585" lon="6.78698">
        <ele>397.1</ele>
        <time>2022-06-19T09:36:14.000Z</time>
      </trkpt>
      <trkpt lat="47.68512" lon="6.78744">
        <ele>397.1</ele>
        <time>2022-06-19T09:36:31.000Z</time>
      </trkpt>
      <trkpt lat="47.68477" lon="6.78753">
        <ele>397.9</ele>
        <time>2022-06-19T09:36:39.000Z</time>
      </trkpt>
      <trkpt lat="47.68451" lon="6.78747">
        <ele>399.2</ele>
        <time>2022-06-19T09:36:45.000Z</time>
      </trkpt>
      <trkpt lat="47.68396" lon="6.78714">
        <ele>401.3</ele>
        <time>2022-06-19T09:36:59.000Z</time>
      </trkpt>
      <trkpt lat="47.68344" lon="6.78699">
        <ele>402.7</ele>
        <time>2022-06-19T09:37:14.000Z</time>
      </trkpt>
      <trkpt lat="47.68337" lon="6.78692">
        <ele>402.7</ele>
        <time>2022-06-19T09:37:17.000Z</time>
      </trkpt>
      <trkpt lat="47.68335" lon="6.7868">
        <ele>402.7</ele>
        <time>2022-06-19T09:37:21.000Z</time>
      </trkpt>
      <trkpt lat="47.68363" lon="6.7862">
        <ele>403.3</ele>
        <time>2022-06-19T09:37:34.000Z</time>
      </trkpt>
      <trkpt lat="47.6838" lon="6.78538">
        <ele>401.8</ele>
        <time>2022-06-19T09:37:46.000Z</time>
      </trkpt>
      <trkpt lat="47.68391" lon="6.78505">
        <ele>401.8</ele>
        <time>2022-06-19T09:37:50.000Z</time>
      </trkpt>
      <trkpt lat="47.68462" lon="6.78403">
        <ele>395.8</ele>
        <time>2022-06-19T09:38:04.000Z</time>
      </trkpt>
      <trkpt lat="47.68544" lon="6.78252">
        <ele>386.6</ele>
        <time>2022-06-19T09:38:21.000Z</time>
      </trkpt>
      <trkpt lat="47.68573" lon="6.78212">
        <ele>386</ele>
        <time>2022-06-19T09:38:27.000Z</time>
      </trkpt>
      <trkpt lat="47.68596" lon="6.78195">
        <ele>386</ele>
        <time>2022-06-19T09:38:32.000Z</time>
      </trkpt>
      <trkpt lat="47.68628" lon="6.78182">
        <ele>386.7</ele>
        <time>2022-06-19T09:38:41.000Z</time>
      </trkpt>
      <trkpt lat="47.68643" lon="6.78183">
        <ele>388.3</ele>
        <time>2022-06-19T09:38:46.000Z</time>
      </trkpt>
      <trkpt lat="47.68706" lon="6.78212">
        <ele>394.1</ele>
        <time>2022-06-19T09:39:11.000Z</time>
      </trkpt>
      <trkpt lat="47.68805" lon="6.78184">
        <ele>399.1</ele>
        <time>2022-06-19T09:39:50.000Z</time>
      </trkpt>
      <trkpt lat="47.68844" lon="6.78157">
        <ele>399.7</ele>
        <time>2022-06-19T09:40:04.000Z</time>
      </trkpt>
      <trkpt lat="47.68893" lon="6.78114">
        <ele>401.1</ele>
        <time>2022-06-19T09:40:19.000Z</time>
      </trkpt>
      <trkpt lat="47.68926" lon="6.78074">
        <ele>401.1</ele>
        <time>2022-06-19T09:40:29.000Z</time>
      </trkpt>
      <trkpt lat="47.68964" lon="6.78015">
        <ele>405.3</ele>
        <time>2022-06-19T09:40:47.000Z</time>
      </trkpt>
      <trkpt lat="47.68973" lon="6.77994">
        <ele>404.7</ele>
        <time>2022-06-19T09:40:51.000Z</time>
      </trkpt>
      <trkpt lat="47.68979" lon="6.77961">
        <ele>404.7</ele>
        <time>2022-06-19T09:40:56.000Z</time>
      </trkpt>
      <trkpt lat="47.68978" lon="6.77878">
        <ele>404.7</ele>
        <time>2022-06-19T09:41:08.000Z</time>
      </trkpt>
      <trkpt lat="47.68984" lon="6.77832">
        <ele>404.7</ele>
        <time>2022-06-19T09:41:15.000Z</time>
      </trkpt>
      <trkpt lat="47.68995" lon="6.77785">
        <ele>405.7</ele>
        <time>2022-06-19T09:41:23.000Z</time>
      </trkpt>
      <trkpt lat="47.69026" lon="6.77691">
        <ele>409.5</ele>
        <time>2022-06-19T09:41:43.000Z</time>
      </trkpt>
      <trkpt lat="47.69034" lon="6.77636">
        <ele>413.7</ele>
        <time>2022-06-19T09:41:54.000Z</time>
      </trkpt>
      <trkpt lat="47.69048" lon="6.77615">
        <ele>413.7</ele>
        <time>2022-06-19T09:42:00.000Z</time>
      </trkpt>
      <trkpt lat="47.69088" lon="6.77585">
        <ele>412.8</ele>
        <time>2022-06-19T09:42:11.000Z</time>
      </trkpt>
      <trkpt lat="47.69104" lon="6.77561">
        <ele>412.2</ele>
        <time>2022-06-19T09:42:16.000Z</time>
      </trkpt>
      <trkpt lat="47.69159" lon="6.7742">
        <ele>408.2</ele>
        <time>2022-06-19T09:42:33.000Z</time>
      </trkpt>
      <trkpt lat="47.69185" lon="6.77309">
        <ele>408.3</ele>
        <time>2022-06-19T09:42:45.000Z</time>
      </trkpt>
      <trkpt lat="47.69188" lon="6.77261">
        <ele>409.1</ele>
        <time>2022-06-19T09:42:51.000Z</time>
      </trkpt>
      <trkpt lat="47.69182" lon="6.77211">
        <ele>407.8</ele>
        <time>2022-06-19T09:42:56.000Z</time>
      </trkpt>
      <trkpt lat="47.69137" lon="6.77024">
        <ele>397.4</ele>
        <time>2022-06-19T09:43:10.000Z</time>
      </trkpt>
      <trkpt lat="47.69135" lon="6.76984">
        <ele>397.4</ele>
        <time>2022-06-19T09:43:13.000Z</time>
      </trkpt>
      <trkpt lat="47.69139" lon="6.76949">
        <ele>396.3</ele>
        <time>2022-06-19T09:43:16.000Z</time>
      </trkpt>
      <trkpt lat="47.6915" lon="6.76914">
        <ele>397.7</ele>
        <time>2022-06-19T09:43:20.000Z</time>
      </trkpt>
      <trkpt lat="47.69206" lon="6.76796">
        <ele>404.3</ele>
        <time>2022-06-19T09:43:45.000Z</time>
      </trkpt>
      <trkpt lat="47.69229" lon="6.76758">
        <ele>406.6</ele>
        <time>2022-06-19T09:43:58.000Z</time>
      </trkpt>
      <trkpt lat="47.69255" lon="6.76741">
        <ele>408.7</ele>
        <time>2022-06-19T09:44:11.000Z</time>
      </trkpt>
      <trkpt lat="47.69261" lon="6.76729">
        <ele>408.7</ele>
        <time>2022-06-19T09:44:16.000Z</time>
      </trkpt>
      <trkpt lat="47.69253" lon="6.76595">
        <ele>406.7</ele>
        <time>2022-06-19T09:44:33.000Z</time>
      </trkpt>
      <trkpt lat="47.69254" lon="6.76561">
        <ele>404</ele>
        <time>2022-06-19T09:44:36.000Z</time>
      </trkpt>
      <trkpt lat="47.6926" lon="6.76516">
        <ele>404</ele>
        <time>2022-06-19T09:44:40.000Z</time>
      </trkpt>
      <trkpt lat="47.69276" lon="6.76447">
        <ele>399</ele>
        <time>2022-06-19T09:44:46.000Z</time>
      </trkpt>
      <trkpt lat="47.69285" lon="6.7639">
        <ele>397.9</ele>
        <time>2022-06-19T09:44:51.000Z</time>
      </trkpt>
      <trkpt lat="47.69294" lon="6.76307">
        <ele>399.1</ele>
        <time>2022-06-19T09:45:00.000Z</time>
      </trkpt>
      <trkpt lat="47.69292" lon="6.76279">
        <ele>401.4</ele>
        <time>2022-06-19T09:45:05.000Z</time>
      </trkpt>
      <trkpt lat="47.69257" lon="6.76236">
        <ele>399.4</ele>
        <time>2022-06-19T09:45:14.000Z</time>
      </trkpt>
      <trkpt lat="47.69248" lon="6.76215">
        <ele>399.4</ele>
        <time>2022-06-19T09:45:17.000Z</time>
      </trkpt>
      <trkpt lat="47.69236" lon="6.76166">
        <ele>398.8</ele>
        <time>2022-06-19T09:45:24.000Z</time>
      </trkpt>
      <trkpt lat="47.69207" lon="6.76136">
        <ele>398.2</ele>
        <time>2022-06-19T09:45:33.000Z</time>
      </trkpt>
      <trkpt lat="47.69171" lon="6.76069">
        <ele>397</ele>
        <time>2022-06-19T09:45:45.000Z</time>
      </trkpt>
      <trkpt lat="47.68984" lon="6.75871">
        <ele>392</ele>
        <time>2022-06-19T09:46:30.000Z</time>
      </trkpt>
      <trkpt lat="47.68962" lon="6.75842">
        <ele>390.8</ele>
        <time>2022-06-19T09:46:34.000Z</time>
      </trkpt>
      <trkpt lat="47.68949" lon="6.75814">
        <ele>390.8</ele>
        <time>2022-06-19T09:46:37.000Z</time>
      </trkpt>
      <trkpt lat="47.68941" lon="6.7578">
        <ele>389</ele>
        <time>2022-06-19T09:46:40.000Z</time>
      </trkpt>
      <trkpt lat="47.68929" lon="6.75675">
        <ele>384.8</ele>
        <time>2022-06-19T09:46:49.000Z</time>
      </trkpt>
      <trkpt lat="47.68927" lon="6.75639">
        <ele>385.3</ele>
        <time>2022-06-19T09:46:53.000Z</time>
      </trkpt>
      <trkpt lat="47.68931" lon="6.75609">
        <ele>385.3</ele>
        <time>2022-06-19T09:46:57.000Z</time>
      </trkpt>
      <trkpt lat="47.68945" lon="6.75559">
        <ele>387.5</ele>
        <time>2022-06-19T09:47:04.000Z</time>
      </trkpt>
      <trkpt lat="47.68983" lon="6.75475">
        <ele>392.7</ele>
        <time>2022-06-19T09:47:23.000Z</time>
      </trkpt>
      <trkpt lat="47.69006" lon="6.75394">
        <ele>393.5</ele>
        <time>2022-06-19T09:47:41.000Z</time>
      </trkpt>
      <trkpt lat="47.69037" lon="6.75306">
        <ele>395</ele>
        <time>2022-06-19T09:48:01.000Z</time>
      </trkpt>
      <trkpt lat="47.69041" lon="6.75277">
        <ele>396</ele>
        <time>2022-06-19T09:48:07.000Z</time>
      </trkpt>
      <trkpt lat="47.69035" lon="6.75215">
        <ele>398.7</ele>
        <time>2022-06-19T09:48:21.000Z</time>
      </trkpt>
      <trkpt lat="47.69038" lon="6.75183">
        <ele>399.6</ele>
        <time>2022-06-19T09:48:29.000Z</time>
      </trkpt>
      <trkpt lat="47.69047" lon="6.75163">
        <ele>401.6</ele>
        <time>2022-06-19T09:48:35.000Z</time>
      </trkpt>
      <trkpt lat="47.69056" lon="6.75153">
        <ele>402.9</ele>
        <time>2022-06-19T09:48:40.000Z</time>
      </trkpt>
      <trkpt lat="47.69067" lon="6.75148">
        <ele>403.6</ele>
        <time>2022-06-19T09:48:45.000Z</time>
      </trkpt>
      <trkpt lat="47.69092" lon="6.75151">
        <ele>403.6</ele>
        <time>2022-06-19T09:48:55.000Z</time>
      </trkpt>
      <trkpt lat="47.69099" lon="6.75145">
        <ele>403.6</ele>
        <time>2022-06-19T09:48:58.000Z</time>
      </trkpt>
      <trkpt lat="47.69106" lon="6.75132">
        <ele>403.6</ele>
        <time>2022-06-19T09:49:01.000Z</time>
      </trkpt>
      <trkpt lat="47.69124" lon="6.75069">
        <ele>402.8</ele>
        <time>2022-06-19T09:49:09.000Z</time>
      </trkpt>
      <trkpt lat="47.69146" lon="6.74936">
        <ele>397</ele>
        <time>2022-06-19T09:49:23.000Z</time>
      </trkpt>
      <trkpt lat="47.69184" lon="6.74844">
        <ele>392.3</ele>
        <time>2022-06-19T09:49:33.000Z</time>
      </trkpt>
      <trkpt lat="47.69187" lon="6.74826">
        <ele>390.1</ele>
        <time>2022-06-19T09:49:35.000Z</time>
      </trkpt>
      <trkpt lat="47.69187" lon="6.74798">
        <ele>390.1</ele>
        <time>2022-06-19T09:49:38.000Z</time>
      </trkpt>
      <trkpt lat="47.69164" lon="6.74622">
        <ele>397.8</ele>
        <time>2022-06-19T09:50:10.000Z</time>
      </trkpt>
      <trkpt lat="47.69164" lon="6.74586">
        <ele>399.9</ele>
        <time>2022-06-19T09:50:19.000Z</time>
      </trkpt>
      <trkpt lat="47.69167" lon="6.74565">
        <ele>401.1</ele>
        <time>2022-06-19T09:50:24.000Z</time>
      </trkpt>
      <trkpt lat="47.69176" lon="6.74551">
        <ele>402.3</ele>
        <time>2022-06-19T09:50:29.000Z</time>
      </trkpt>
      <trkpt lat="47.69186" lon="6.74553">
        <ele>403.3</ele>
        <time>2022-06-19T09:50:34.000Z</time>
      </trkpt>
      <trkpt lat="47.69202" lon="6.74609">
        <ele>405.6</ele>
        <time>2022-06-19T09:50:50.000Z</time>
      </trkpt>
      <trkpt lat="47.69224" lon="6.74643">
        <ele>407.9</ele>
        <time>2022-06-19T09:51:02.000Z</time>
      </trkpt>
      <trkpt lat="47.6924" lon="6.74657">
        <ele>409.4</ele>
        <time>2022-06-19T09:51:09.000Z</time>
      </trkpt>
      <trkpt lat="47.69258" lon="6.74665">
        <ele>410.4</ele>
        <time>2022-06-19T09:51:16.000Z</time>
      </trkpt>
      <trkpt lat="47.69268" lon="6.74665">
        <ele>410.4</ele>
        <time>2022-06-19T09:51:20.000Z</time>
      </trkpt>
      <trkpt lat="47.69277" lon="6.74657">
        <ele>411</ele>
        <time>2022-06-19T09:51:24.000Z</time>
      </trkpt>
      <trkpt lat="47.69282" lon="6.74641">
        <ele>411</ele>
        <time>2022-06-19T09:51:28.000Z</time>
      </trkpt>
      <trkpt lat="47.69282" lon="6.74621">
        <ele>412</ele>
        <time>2022-06-19T09:51:32.000Z</time>
      </trkpt>
      <trkpt lat="47.69268" lon="6.74543">
        <ele>413.4</ele>
        <time>2022-06-19T09:51:50.000Z</time>
      </trkpt>
      <trkpt lat="47.69267" lon="6.74439">
        <ele>415.6</ele>
        <time>2022-06-19T09:52:13.000Z</time>
      </trkpt>
      <trkpt lat="47.69261" lon="6.74406">
        <ele>417.7</ele>
        <time>2022-06-19T09:52:22.000Z</time>
      </trkpt>
      <trkpt lat="47.69247" lon="6.7436">
        <ele>420.9</ele>
        <time>2022-06-19T09:52:35.000Z</time>
      </trkpt>
      <trkpt lat="47.69246" lon="6.74319">
        <ele>423.1</ele>
        <time>2022-06-19T09:52:45.000Z</time>
      </trkpt>
      <trkpt lat="47.69269" lon="6.74203">
        <ele>427.7</ele>
        <time>2022-06-19T09:53:15.000Z</time>
      </trkpt>
      <trkpt lat="47.6928" lon="6.74175">
        <ele>428.4</ele>
        <time>2022-06-19T09:53:23.000Z</time>
      </trkpt>
      <trkpt lat="47.69325" lon="6.74093">
        <ele>433.6</ele>
        <time>2022-06-19T09:53:51.000Z</time>
      </trkpt>
      <trkpt lat="47.6933" lon="6.74073">
        <ele>434.4</ele>
        <time>2022-06-19T09:53:57.000Z</time>
      </trkpt>
      <trkpt lat="47.6933" lon="6.74053">
        <ele>435.3</ele>
        <time>2022-06-19T09:54:02.000Z</time>
      </trkpt>
      <trkpt lat="47.69312" lon="6.73985">
        <ele>437.1</ele>
        <time>2022-06-19T09:54:20.000Z</time>
      </trkpt>
      <trkpt lat="47.69261" lon="6.73835">
        <ele>438.5</ele>
        <time>2022-06-19T09:54:53.000Z</time>
      </trkpt>
      <trkpt lat="47.69229" lon="6.73676">
        <ele>436.8</ele>
        <time>2022-06-19T09:55:18.000Z</time>
      </trkpt>
      <trkpt lat="47.69198" lon="6.73618">
        <ele>435.2</ele>
        <time>2022-06-19T09:55:29.000Z</time>
      </trkpt>
      <trkpt lat="47.69183" lon="6.73572">
        <ele>434.5</ele>
        <time>2022-06-19T09:55:34.000Z</time>
      </trkpt>
      <trkpt lat="47.69154" lon="6.73388">
        <ele>426</ele>
        <time>2022-06-19T09:55:50.000Z</time>
      </trkpt>
      <trkpt lat="47.69152" lon="6.73284">
        <ele>426.1</ele>
        <time>2022-06-19T09:55:59.000Z</time>
      </trkpt>
      <trkpt lat="47.69155" lon="6.73207">
        <ele>422.5</ele>
        <time>2022-06-19T09:56:07.000Z</time>
      </trkpt>
      <trkpt lat="47.69174" lon="6.73039">
        <ele>427.2</ele>
        <time>2022-06-19T09:56:27.000Z</time>
      </trkpt>
      <trkpt lat="47.6918" lon="6.72856">
        <ele>430.4</ele>
        <time>2022-06-19T09:56:52.000Z</time>
      </trkpt>
      <trkpt lat="47.69191" lon="6.72799">
        <ele>431.4</ele>
        <time>2022-06-19T09:57:01.000Z</time>
      </trkpt>
      <trkpt lat="47.69219" lon="6.72719">
        <ele>431.4</ele>
        <time>2022-06-19T09:57:15.000Z</time>
      </trkpt>
      <trkpt lat="47.69224" lon="6.72688">
        <ele>431.4</ele>
        <time>2022-06-19T09:57:20.000Z</time>
      </trkpt>
      <trkpt lat="47.69224" lon="6.72657">
        <ele>432.2</ele>
        <time>2022-06-19T09:57:25.000Z</time>
      </trkpt>
      <trkpt lat="47.69213" lon="6.72596">
        <ele>433.4</ele>
        <time>2022-06-19T09:57:36.000Z</time>
      </trkpt>
      <trkpt lat="47.69209" lon="6.72552">
        <ele>435.6</ele>
        <time>2022-06-19T09:57:45.000Z</time>
      </trkpt>
      <trkpt lat="47.69208" lon="6.72503">
        <ele>435.6</ele>
        <time>2022-06-19T09:57:56.000Z</time>
      </trkpt>
      <trkpt lat="47.69212" lon="6.72468">
        <ele>437.2</ele>
        <time>2022-06-19T09:58:05.000Z</time>
      </trkpt>
      <trkpt lat="47.69224" lon="6.72433">
        <ele>439</ele>
        <time>2022-06-19T09:58:16.000Z</time>
      </trkpt>
      <trkpt lat="47.69262" lon="6.72365">
        <ele>442.5</ele>
        <time>2022-06-19T09:58:36.000Z</time>
      </trkpt>
      <trkpt lat="47.69306" lon="6.72298">
        <ele>442.5</ele>
        <time>2022-06-19T09:58:53.000Z</time>
      </trkpt>
      <trkpt lat="47.69384" lon="6.72198">
        <ele>441.5</ele>
        <time>2022-06-19T09:59:16.000Z</time>
      </trkpt>
      <trkpt lat="47.69398" lon="6.72175">
        <ele>439.9</ele>
        <time>2022-06-19T09:59:20.000Z</time>
      </trkpt>
      <trkpt lat="47.69408" lon="6.7214">
        <ele>438.2</ele>
        <time>2022-06-19T09:59:25.000Z</time>
      </trkpt>
      <trkpt lat="47.69411" lon="6.7209">
        <ele>438.2</ele>
        <time>2022-06-19T09:59:31.000Z</time>
      </trkpt>
      <trkpt lat="47.69416" lon="6.72059">
        <ele>438.2</ele>
        <time>2022-06-19T09:59:35.000Z</time>
      </trkpt>
      <trkpt lat="47.69426" lon="6.72035">
        <ele>438.9</ele>
        <time>2022-06-19T09:59:39.000Z</time>
      </trkpt>
      <trkpt lat="47.69447" lon="6.72001">
        <ele>441.5</ele>
        <time>2022-06-19T09:59:49.000Z</time>
      </trkpt>
      <trkpt lat="47.69457" lon="6.71959">
        <ele>443.8</ele>
        <time>2022-06-19T09:59:59.000Z</time>
      </trkpt>
      <trkpt lat="47.69457" lon="6.71933">
        <ele>445.6</ele>
        <time>2022-06-19T10:00:05.000Z</time>
      </trkpt>
      <trkpt lat="47.69452" lon="6.71896">
        <ele>447.6</ele>
        <time>2022-06-19T10:00:14.000Z</time>
      </trkpt>
      <trkpt lat="47.69447" lon="6.71864">
        <ele>448.5</ele>
        <time>2022-06-19T10:00:22.000Z</time>
      </trkpt>
      <trkpt lat="47.69438" lon="6.71836">
        <ele>450.1</ele>
        <time>2022-06-19T10:00:30.000Z</time>
      </trkpt>
      <trkpt lat="47.69375" lon="6.71688">
        <ele>452.9</ele>
        <time>2022-06-19T10:01:04.000Z</time>
      </trkpt>
      <trkpt lat="47.69344" lon="6.71638">
        <ele>454.5</ele>
        <time>2022-06-19T10:01:18.000Z</time>
      </trkpt>
      <trkpt lat="47.69336" lon="6.71614">
        <ele>455.9</ele>
        <time>2022-06-19T10:01:24.000Z</time>
      </trkpt>
      <trkpt lat="47.6933" lon="6.71578">
        <ele>456.5</ele>
        <time>2022-06-19T10:01:31.000Z</time>
      </trkpt>
      <trkpt lat="47.69329" lon="6.71552">
        <ele>457</ele>
        <time>2022-06-19T10:01:36.000Z</time>
      </trkpt>
      <trkpt lat="47.6934" lon="6.71437">
        <ele>457.7</ele>
        <time>2022-06-19T10:01:54.000Z</time>
      </trkpt>
      <trkpt lat="47.69351" lon="6.71399">
        <ele>457.7</ele>
        <time>2022-06-19T10:02:00.000Z</time>
      </trkpt>
      <trkpt lat="47.6937" lon="6.71365">
        <ele>457.7</ele>
        <time>2022-06-19T10:02:07.000Z</time>
      </trkpt>
      <trkpt lat="47.69417" lon="6.71311">
        <ele>458.9</ele>
        <time>2022-06-19T10:02:21.000Z</time>
      </trkpt>
      <trkpt lat="47.69472" lon="6.71264">
        <ele>459.1</ele>
        <time>2022-06-19T10:02:42.000Z</time>
      </trkpt>
      <trkpt lat="47.69486" lon="6.71243">
        <ele>456.8</ele>
        <time>2022-06-19T10:02:46.000Z</time>
      </trkpt>
      <trkpt lat="47.69516" lon="6.71167">
        <ele>454.6</ele>
        <time>2022-06-19T10:02:54.000Z</time>
      </trkpt>
      <trkpt lat="47.69564" lon="6.71082">
        <ele>451.1</ele>
        <time>2022-06-19T10:03:01.000Z</time>
      </trkpt>
      <trkpt lat="47.69585" lon="6.71038">
        <ele>446.4</ele>
        <time>2022-06-19T10:03:04.000Z</time>
      </trkpt>
      <trkpt lat="47.69679" lon="6.7078">
        <ele>434.1</ele>
        <time>2022-06-19T10:03:20.000Z</time>
      </trkpt>
      <trkpt lat="47.69708" lon="6.70667">
        <ele>430.9</ele>
        <time>2022-06-19T10:03:27.000Z</time>
      </trkpt>
      <trkpt lat="47.69721" lon="6.70581">
        <ele>428.9</ele>
        <time>2022-06-19T10:03:32.000Z</time>
      </trkpt>
      <trkpt lat="47.69721" lon="6.70546">
        <ele>424.7</ele>
        <time>2022-06-19T10:03:34.000Z</time>
      </trkpt>
      <trkpt lat="47.69715" lon="6.70495">
        <ele>424.7</ele>
        <time>2022-06-19T10:03:37.000Z</time>
      </trkpt>
      <trkpt lat="47.69693" lon="6.70389">
        <ele>419.9</ele>
        <time>2022-06-19T10:03:43.000Z</time>
      </trkpt>
      <trkpt lat="47.69686" lon="6.70335">
        <ele>414.7</ele>
        <time>2022-06-19T10:03:46.000Z</time>
      </trkpt>
      <trkpt lat="47.69686" lon="6.703">
        <ele>414.7</ele>
        <time>2022-06-19T10:03:48.000Z</time>
      </trkpt>
      <trkpt lat="47.6969" lon="6.70269">
        <ele>412</ele>
        <time>2022-06-19T10:03:50.000Z</time>
      </trkpt>
      <trkpt lat="47.69707" lon="6.70232">
        <ele>412</ele>
        <time>2022-06-19T10:03:53.000Z</time>
      </trkpt>
      <trkpt lat="47.69722" lon="6.70216">
        <ele>401.8</ele>
        <time>2022-06-19T10:03:55.000Z</time>
      </trkpt>
      <trkpt lat="47.69741" lon="6.70207">
        <ele>401.8</ele>
        <time>2022-06-19T10:03:57.000Z</time>
      </trkpt>
      <trkpt lat="47.69782" lon="6.70208">
        <ele>395.5</ele>
        <time>2022-06-19T10:04:01.000Z</time>
      </trkpt>
      <trkpt lat="47.69819" lon="6.70227">
        <ele>389.1</ele>
        <time>2022-06-19T10:04:05.000Z</time>
      </trkpt>
      <trkpt lat="47.69888" lon="6.70278">
        <ele>388.6</ele>
        <time>2022-06-19T10:04:14.000Z</time>
      </trkpt>
      <trkpt lat="47.69984" lon="6.70328">
        <ele>389.4</ele>
        <time>2022-06-19T10:04:29.000Z</time>
      </trkpt>
      <trkpt lat="47.70027" lon="6.7034">
        <ele>389.4</ele>
        <time>2022-06-19T10:04:37.000Z</time>
      </trkpt>
      <trkpt lat="47.70044" lon="6.70334">
        <ele>390</ele>
        <time>2022-06-19T10:04:41.000Z</time>
      </trkpt>
      <trkpt lat="47.70052" lon="6.70321">
        <ele>390</ele>
        <time>2022-06-19T10:04:44.000Z</time>
      </trkpt>
      <trkpt lat="47.70058" lon="6.70288">
        <ele>391.1</ele>
        <time>2022-06-19T10:04:49.000Z</time>
      </trkpt>
      <trkpt lat="47.70066" lon="6.70116">
        <ele>391.9</ele>
        <time>2022-06-19T10:05:11.000Z</time>
      </trkpt>
      <trkpt lat="47.70076" lon="6.70094">
        <ele>390.8</ele>
        <time>2022-06-19T10:05:15.000Z</time>
      </trkpt>
      <trkpt lat="47.7011" lon="6.70064">
        <ele>390.8</ele>
        <time>2022-06-19T10:05:23.000Z</time>
      </trkpt>
      <trkpt lat="47.70118" lon="6.70045">
        <ele>390.8</ele>
        <time>2022-06-19T10:05:26.000Z</time>
      </trkpt>
      <trkpt lat="47.70121" lon="6.70021">
        <ele>389.9</ele>
        <time>2022-06-19T10:05:29.000Z</time>
      </trkpt>
      <trkpt lat="47.70115" lon="6.69935">
        <ele>389.2</ele>
        <time>2022-06-19T10:05:39.000Z</time>
      </trkpt>
      <trkpt lat="47.70094" lon="6.69815">
        <ele>388.3</ele>
        <time>2022-06-19T10:05:53.000Z</time>
      </trkpt>
      <trkpt lat="47.70072" lon="6.69649">
        <ele>388.3</ele>
        <time>2022-06-19T10:06:11.000Z</time>
      </trkpt>
      <trkpt lat="47.70071" lon="6.69622">
        <ele>388.3</ele>
        <time>2022-06-19T10:06:14.000Z</time>
      </trkpt>
      <trkpt lat="47.70073" lon="6.69596">
        <ele>388.3</ele>
        <time>2022-06-19T10:06:17.000Z</time>
      </trkpt>
      <trkpt lat="47.70089" lon="6.6956">
        <ele>386.6</ele>
        <time>2022-06-19T10:06:22.000Z</time>
      </trkpt>
      <trkpt lat="47.70139" lon="6.69508">
        <ele>387.1</ele>
        <time>2022-06-19T10:06:33.000Z</time>
      </trkpt>
      <trkpt lat="47.70175" lon="6.69445">
        <ele>387.1</ele>
        <time>2022-06-19T10:06:43.000Z</time>
      </trkpt>
      <trkpt lat="47.70191" lon="6.69422">
        <ele>387.1</ele>
        <time>2022-06-19T10:06:47.000Z</time>
      </trkpt>
      <trkpt lat="47.70238" lon="6.69381">
        <ele>385.1</ele>
        <time>2022-06-19T10:06:57.000Z</time>
      </trkpt>
      <trkpt lat="47.70317" lon="6.69329">
        <ele>386.1</ele>
        <time>2022-06-19T10:07:22.000Z</time>
      </trkpt>
      <trkpt lat="47.70326" lon="6.69314">
        <ele>385.6</ele>
        <time>2022-06-19T10:07:39.000Z</time>
      </trkpt>
      <trkpt lat="47.70336" lon="6.69291">
        <ele>385.6</ele>
        <time>2022-06-19T10:07:44.000Z</time>
      </trkpt>
      <trkpt lat="47.70406" lon="6.69011">
        <ele>384.2</ele>
        <time>2022-06-19T10:08:23.000Z</time>
      </trkpt>
      <trkpt lat="47.70442" lon="6.68914">
        <ele>383.4</ele>
        <time>2022-06-19T10:08:36.000Z</time>
      </trkpt>
      <trkpt lat="47.70492" lon="6.68802">
        <ele>383.4</ele>
        <time>2022-06-19T10:08:51.000Z</time>
      </trkpt>
      <trkpt lat="47.70543" lon="6.68641">
        <ele>381.4</ele>
        <time>2022-06-19T10:09:10.000Z</time>
      </trkpt>
      <trkpt lat="47.70556" lon="6.6858">
        <ele>376.6</ele>
        <time>2022-06-19T10:09:17.000Z</time>
      </trkpt>
      <trkpt lat="47.70568" lon="6.68482">
        <ele>378.8</ele>
        <time>2022-06-19T10:09:29.000Z</time>
      </trkpt>
      <trkpt lat="47.70598" lon="6.68335">
        <ele>379.8</ele>
        <time>2022-06-19T10:09:48.000Z</time>
      </trkpt>
      <trkpt lat="47.70619" lon="6.68249">
        <ele>379.1</ele>
        <time>2022-06-19T10:09:59.000Z</time>
      </trkpt>
      <trkpt lat="47.70625" lon="6.68207">
        <ele>378.1</ele>
        <time>2022-06-19T10:10:04.000Z</time>
      </trkpt>
      <trkpt lat="47.70624" lon="6.68126">
        <ele>378.1</ele>
        <time>2022-06-19T10:10:13.000Z</time>
      </trkpt>
      <trkpt lat="47.70616" lon="6.67982">
        <ele>376</ele>
        <time>2022-06-19T10:10:30.000Z</time>
      </trkpt>
      <trkpt lat="47.70606" lon="6.67866">
        <ele>375.3</ele>
        <time>2022-06-19T10:10:43.000Z</time>
      </trkpt>
      <trkpt lat="47.70608" lon="6.67824">
        <ele>374.5</ele>
        <time>2022-06-19T10:10:48.000Z</time>
      </trkpt>
      <trkpt lat="47.70614" lon="6.67791">
        <ele>374.5</ele>
        <time>2022-06-19T10:10:52.000Z</time>
      </trkpt>
      <trkpt lat="47.70627" lon="6.67753">
        <ele>374.5</ele>
        <time>2022-06-19T10:10:57.000Z</time>
      </trkpt>
      <trkpt lat="47.7066" lon="6.67676">
        <ele>373.2</ele>
        <time>2022-06-19T10:11:08.000Z</time>
      </trkpt>
      <trkpt lat="47.70675" lon="6.67628">
        <ele>373.2</ele>
        <time>2022-06-19T10:11:15.000Z</time>
      </trkpt>
      <trkpt lat="47.70682" lon="6.67601">
        <ele>373.2</ele>
        <time>2022-06-19T10:11:19.000Z</time>
      </trkpt>
      <trkpt lat="47.70688" lon="6.67541">
        <ele>371.8</ele>
        <time>2022-06-19T10:11:27.000Z</time>
      </trkpt>
      <trkpt lat="47.70697" lon="6.67511">
        <ele>371.8</ele>
        <time>2022-06-19T10:11:31.000Z</time>
      </trkpt>
      <trkpt lat="47.70709" lon="6.67495">
        <ele>371.8</ele>
        <time>2022-06-19T10:11:34.000Z</time>
      </trkpt>
      <trkpt lat="47.70723" lon="6.67483">
        <ele>371.8</ele>
        <time>2022-06-19T10:11:37.000Z</time>
      </trkpt>
      <trkpt lat="47.70745" lon="6.67475">
        <ele>372.5</ele>
        <time>2022-06-19T10:11:41.000Z</time>
      </trkpt>
      <trkpt lat="47.70791" lon="6.67471">
        <ele>373</ele>
        <time>2022-06-19T10:11:50.000Z</time>
      </trkpt>
      <trkpt lat="47.70798" lon="6.67466">
        <ele>373</ele>
        <time>2022-06-19T10:11:52.000Z</time>
      </trkpt>
      <trkpt lat="47.70806" lon="6.67454">
        <ele>373</ele>
        <time>2022-06-19T10:11:55.000Z</time>
      </trkpt>
      <trkpt lat="47.7081" lon="6.67435">
        <ele>373</ele>
        <time>2022-06-19T10:11:58.000Z</time>
      </trkpt>
      <trkpt lat="47.70823" lon="6.67289">
        <ele>373.8</ele>
        <time>2022-06-19T10:12:17.000Z</time>
      </trkpt>
      <trkpt lat="47.70823" lon="6.67233">
        <ele>373.8</ele>
        <time>2022-06-19T10:12:24.000Z</time>
      </trkpt>
      <trkpt lat="47.70792" lon="6.67138">
        <ele>375.5</ele>
        <time>2022-06-19T10:12:40.000Z</time>
      </trkpt>
      <trkpt lat="47.70777" lon="6.6706">
        <ele>375.5</ele>
        <time>2022-06-19T10:12:53.000Z</time>
      </trkpt>
      <trkpt lat="47.70746" lon="6.66989">
        <ele>374.6</ele>
        <time>2022-06-19T10:13:07.000Z</time>
      </trkpt>
      <trkpt lat="47.70742" lon="6.66957">
        <ele>374.6</ele>
        <time>2022-06-19T10:13:12.000Z</time>
      </trkpt>
      <trkpt lat="47.7074" lon="6.66886">
        <ele>375.9</ele>
        <time>2022-06-19T10:13:21.000Z</time>
      </trkpt>
      <trkpt lat="47.70729" lon="6.66829">
        <ele>376.6</ele>
        <time>2022-06-19T10:13:28.000Z</time>
      </trkpt>
      <trkpt lat="47.70668" lon="6.66665">
        <ele>371.1</ele>
        <time>2022-06-19T10:13:46.000Z</time>
      </trkpt>
      <trkpt lat="47.70619" lon="6.66581">
        <ele>368.2</ele>
        <time>2022-06-19T10:13:56.000Z</time>
      </trkpt>
      <trkpt lat="47.70608" lon="6.66553">
        <ele>368.2</ele>
        <time>2022-06-19T10:14:00.000Z</time>
      </trkpt>
      <trkpt lat="47.70551" lon="6.66315">
        <ele>365.5</ele>
        <time>2022-06-19T10:14:28.000Z</time>
      </trkpt>
      <trkpt lat="47.7046" lon="6.66075">
        <ele>363.4</ele>
        <time>2022-06-19T10:14:59.000Z</time>
      </trkpt>
      <trkpt lat="47.70408" lon="6.65836">
        <ele>364.3</ele>
        <time>2022-06-19T10:15:32.000Z</time>
      </trkpt>
      <trkpt lat="47.70375" lon="6.65724">
        <ele>362.7</ele>
        <time>2022-06-19T10:15:48.000Z</time>
      </trkpt>
      <trkpt lat="47.70361" lon="6.65651">
        <ele>363.7</ele>
        <time>2022-06-19T10:15:59.000Z</time>
      </trkpt>
      <trkpt lat="47.70336" lon="6.65586">
        <ele>365.2</ele>
        <time>2022-06-19T10:16:11.000Z</time>
      </trkpt>
      <trkpt lat="47.70321" lon="6.65346">
        <ele>363.5</ele>
        <time>2022-06-19T10:16:45.000Z</time>
      </trkpt>
      <trkpt lat="47.70328" lon="6.65221">
        <ele>364.2</ele>
        <time>2022-06-19T10:17:02.000Z</time>
      </trkpt>
      <trkpt lat="47.70324" lon="6.65171">
        <ele>363.4</ele>
        <time>2022-06-19T10:17:09.000Z</time>
      </trkpt>
      <trkpt lat="47.70296" lon="6.65055">
        <ele>362.9</ele>
        <time>2022-06-19T10:17:24.000Z</time>
      </trkpt>
      <trkpt lat="47.70278" lon="6.65001">
        <ele>362.3</ele>
        <time>2022-06-19T10:17:31.000Z</time>
      </trkpt>
      <trkpt lat="47.70246" lon="6.64933">
        <ele>360.7</ele>
        <time>2022-06-19T10:17:42.000Z</time>
      </trkpt>
      <trkpt lat="47.70207" lon="6.64878">
        <ele>358.5</ele>
        <time>2022-06-19T10:17:54.000Z</time>
      </trkpt>
      <trkpt lat="47.70203" lon="6.64837">
        <ele>356.7</ele>
        <time>2022-06-19T10:18:01.000Z</time>
      </trkpt>
      <trkpt lat="47.70197" lon="6.64823">
        <ele>356.7</ele>
        <time>2022-06-19T10:18:03.000Z</time>
      </trkpt>
      <trkpt lat="47.7019" lon="6.64781">
        <ele>357.5</ele>
        <time>2022-06-19T10:18:09.000Z</time>
      </trkpt>
      <trkpt lat="47.70189" lon="6.64719">
        <ele>355.4</ele>
        <time>2022-06-19T10:18:18.000Z</time>
      </trkpt>
      <trkpt lat="47.70198" lon="6.64606">
        <ele>355.4</ele>
        <time>2022-06-19T10:18:33.000Z</time>
      </trkpt>
      <trkpt lat="47.70194" lon="6.64566">
        <ele>354.6</ele>
        <time>2022-06-19T10:18:38.000Z</time>
      </trkpt>
      <trkpt lat="47.70172" lon="6.6443">
        <ele>354.4</ele>
        <time>2022-06-19T10:18:58.000Z</time>
      </trkpt>
      <trkpt lat="47.70175" lon="6.64349">
        <ele>354.4</ele>
        <time>2022-06-19T10:19:10.000Z</time>
      </trkpt>
      <trkpt lat="47.70172" lon="6.64309">
        <ele>354.4</ele>
        <time>2022-06-19T10:19:16.000Z</time>
      </trkpt>
      <trkpt lat="47.70161" lon="6.64262">
        <ele>354.4</ele>
        <time>2022-06-19T10:19:23.000Z</time>
      </trkpt>
      <trkpt lat="47.70138" lon="6.64191">
        <ele>354.4</ele>
        <time>2022-06-19T10:19:34.000Z</time>
      </trkpt>
      <trkpt lat="47.70109" lon="6.64133">
        <ele>353.8</ele>
        <time>2022-06-19T10:19:45.000Z</time>
      </trkpt>
      <trkpt lat="47.7009" lon="6.64083">
        <ele>353</ele>
        <time>2022-06-19T10:20:00.000Z</time>
      </trkpt>
      <trkpt lat="47.70098" lon="6.64102">
        <ele>353.7</ele>
        <time>2022-06-19T10:20:14.000Z</time>
      </trkpt>
      <trkpt lat="47.70095" lon="6.64054">
        <ele>353.7</ele>
        <time>2022-06-19T10:20:26.000Z</time>
      </trkpt>
      <trkpt lat="47.70098" lon="6.64017">
        <ele>353.1</ele>
        <time>2022-06-19T10:20:34.000Z</time>
      </trkpt>
      <trkpt lat="47.70097" lon="6.64002">
        <ele>353.1</ele>
        <time>2022-06-19T10:20:38.000Z</time>
      </trkpt>
      <trkpt lat="47.70025" lon="6.63865">
        <ele>350.9</ele>
        <time>2022-06-19T10:21:06.000Z</time>
      </trkpt>
      <trkpt lat="47.70015" lon="6.63838">
        <ele>349.7</ele>
        <time>2022-06-19T10:21:10.000Z</time>
      </trkpt>
      <trkpt lat="47.70008" lon="6.63793">
        <ele>351.1</ele>
        <time>2022-06-19T10:21:16.000Z</time>
      </trkpt>
      <trkpt lat="47.70005" lon="6.63752">
        <ele>351.1</ele>
        <time>2022-06-19T10:21:22.000Z</time>
      </trkpt>
      <trkpt lat="47.70012" lon="6.63728">
        <ele>351.1</ele>
        <time>2022-06-19T10:21:27.000Z</time>
      </trkpt>
      <trkpt lat="47.70026" lon="6.63719">
        <ele>351.8</ele>
        <time>2022-06-19T10:21:31.000Z</time>
      </trkpt>
      <trkpt lat="47.70088" lon="6.63707">
        <ele>351.8</ele>
        <time>2022-06-19T10:21:46.000Z</time>
      </trkpt>
      <trkpt lat="47.70095" lon="6.63699">
        <ele>352.7</ele>
        <time>2022-06-19T10:21:49.000Z</time>
      </trkpt>
      <trkpt lat="47.70098" lon="6.6368">
        <ele>352.7</ele>
        <time>2022-06-19T10:21:53.000Z</time>
      </trkpt>
      <trkpt lat="47.70081" lon="6.63486">
        <ele>352.7</ele>
        <time>2022-06-19T10:22:21.000Z</time>
      </trkpt>
      <trkpt lat="47.70053" lon="6.6333">
        <ele>352.6</ele>
        <time>2022-06-19T10:22:42.000Z</time>
      </trkpt>
      <trkpt lat="47.70034" lon="6.63202">
        <ele>352.3</ele>
        <time>2022-06-19T10:23:00.000Z</time>
      </trkpt>
      <trkpt lat="47.70025" lon="6.63061">
        <ele>351.4</ele>
        <time>2022-06-19T10:23:17.000Z</time>
      </trkpt>
      <trkpt lat="47.69934" lon="6.62668">
        <ele>347.7</ele>
        <time>2022-06-19T10:24:01.000Z</time>
      </trkpt>
      <trkpt lat="47.69819" lon="6.62217">
        <ele>346.3</ele>
        <time>2022-06-19T10:24:49.000Z</time>
      </trkpt>
      <trkpt lat="47.69764" lon="6.61988">
        <ele>345.8</ele>
        <time>2022-06-19T10:25:19.000Z</time>
      </trkpt>
      <trkpt lat="47.69758" lon="6.6195">
        <ele>346.8</ele>
        <time>2022-06-19T10:25:24.000Z</time>
      </trkpt>
      <trkpt lat="47.69758" lon="6.61913">
        <ele>345.6</ele>
        <time>2022-06-19T10:25:29.000Z</time>
      </trkpt>
      <trkpt lat="47.69772" lon="6.61696">
        <ele>346.3</ele>
        <time>2022-06-19T10:26:01.000Z</time>
      </trkpt>
      <trkpt lat="47.6977" lon="6.61684">
        <ele>346.3</ele>
        <time>2022-06-19T10:26:03.000Z</time>
      </trkpt>
      <trkpt lat="47.69763" lon="6.61669">
        <ele>346.3</ele>
        <time>2022-06-19T10:26:06.000Z</time>
      </trkpt>
      <trkpt lat="47.69723" lon="6.61634">
        <ele>343</ele>
        <time>2022-06-19T10:26:14.000Z</time>
      </trkpt>
      <trkpt lat="47.69715" lon="6.61618">
        <ele>343</ele>
        <time>2022-06-19T10:26:16.000Z</time>
      </trkpt>
      <trkpt lat="47.69706" lon="6.61589">
        <ele>341.4</ele>
        <time>2022-06-19T10:26:19.000Z</time>
      </trkpt>
      <trkpt lat="47.69689" lon="6.61447">
        <ele>342.6</ele>
        <time>2022-06-19T10:26:33.000Z</time>
      </trkpt>
      <trkpt lat="47.69667" lon="6.61306">
        <ele>342.4</ele>
        <time>2022-06-19T10:26:51.000Z</time>
      </trkpt>
      <trkpt lat="47.69668" lon="6.61287">
        <ele>341.4</ele>
        <time>2022-06-19T10:26:55.000Z</time>
      </trkpt>
      <trkpt lat="47.69673" lon="6.61281">
        <ele>341.4</ele>
        <time>2022-06-19T10:26:58.000Z</time>
      </trkpt>
      <trkpt lat="47.69692" lon="6.61282">
        <ele>341.4</ele>
        <time>2022-06-19T10:27:28.000Z</time>
      </trkpt>
      <trkpt lat="47.69695" lon="6.61287">
        <ele>341.4</ele>
        <time>2022-06-19T10:27:32.000Z</time>
      </trkpt>
    </trkseg>
  </trk>
</gpx>